Observation data for Sweetwater on 02/11/2018      Previous  Date  Next       Current Mesonet Observations  Soil Data  Daily Summary Page  Observations in Plain Language
KSW1 110600Z 04017G22KT M04/M10 A2997 RMK A01 T10401101  RH  063%=      5-min Rain = 0
KSW1 110601Z 04014KT M04/M10 A2997 RMK A01 T10411101  RH  063%=      5-min Rain = 0
KSW1 110602Z 05013G19KT M04/M10 A2997 RMK A01 T10411101  RH  063%=      5-min Rain = 0
KSW1 110603Z 04016KT M04/M10 A2997 RMK A01 T10411101  RH  063%=      5-min Rain = 0
KSW1 110604Z 05015KT M04/M10 A2997 RMK A01 T10411100  RH  063%=      5-min Rain = 0
KSW1 110605Z 04017KT M04/M10 A2997 RMK A01 T10411101  RH  063%=      5-min Rain = 0
KSW1 110606Z 04013KT M04/M10 A2997 RMK A01 T10421101  RH  063%=      5-min Rain = 0
KSW1 110607Z 04015KT M04/M10 A2997 RMK A01 T10421101  RH  063%=      5-min Rain = 0
KSW1 110608Z 05017KT M04/M10 A2997 RMK A01 T10421101  RH  063%=      5-min Rain = 0
KSW1 110609Z 04016G22KT M04/M10 A2997 RMK A01 T10421101  RH  063%=      5-min Rain = 0
KSW1 110610Z 04018G23KT M04/M10 A2997 RMK A01 T10421101  RH  063%=      5-min Rain = 0
KSW1 110611Z 04018KT M04/M10 A2997 RMK A01 T10421101  RH  063%=      5-min Rain = 0
KSW1 110612Z 04018KT M04/M10 A2998 RMK A01 T10421101  RH  063%=      5-min Rain = 0
KSW1 110613Z 04019KT M04/M10 A2998 RMK A01 T10421101  RH  063%=      5-min Rain = 0
KSW1 110614Z 04019KT M04/M10 A2998 RMK A01 T10421101  RH  063%=      5-min Rain = 0
KSW1 110615Z 04015KT M04/M10 A2998 RMK A01 T10421101  RH  063%=      5-min Rain = 0
KSW1 110616Z 04018KT M04/M10 A2998 RMK A01 T10421101  RH  063%=      5-min Rain = 0
KSW1 110617Z 04018KT M04/M10 A2998 RMK A01 T10431102  RH  064%=      5-min Rain = 0
KSW1 110618Z 04019KT M04/M10 A2998 RMK A01 T10431102  RH  064%=      5-min Rain = 0
KSW1 110619Z 04020KT M04/M10 A2998 RMK A01 T10431102  RH  064%=      5-min Rain = 0
KSW1 110620Z 04017KT M04/M10 A2998 RMK A01 T10431102  RH  064%=      5-min Rain = 0
KSW1 110621Z 04015KT M04/M10 A2998 RMK A01 T10431102  RH  064%=      5-min Rain = 0
KSW1 110622Z 04015KT M04/M10 A2998 RMK A01 T10431102  RH  064%=      5-min Rain = 0
KSW1 110623Z 04015G21KT M04/M10 A2998 RMK A01 T10441102  RH  064%=      5-min Rain = 0
KSW1 110624Z 04016G23KT M04/M10 A2998 RMK A01 T10441102  RH  064%=      5-min Rain = 0
KSW1 110625Z 04020G25KT M04/M10 A2998 RMK A01 T10441102  RH  064%=      5-min Rain = 0
KSW1 110626Z 04020KT M04/M10 A2998 RMK A01 T10441102  RH  064%=      5-min Rain = 0
KSW1 110627Z 04017KT M04/M10 A2998 RMK A01 T10441103  RH  064%=      5-min Rain = 0
KSW1 110628Z 04016G21KT M04/M10 A2998 RMK A01 T10441103  RH  064%=      5-min Rain = 0
KSW1 110629Z 04015KT M04/M10 A2998 RMK A01 T10441103  RH  064%=      5-min Rain = 0
KSW1 110630Z 04019KT M05/M10 A2998 RMK A01 T10451103  RH  064%=      5-min Rain = 0
KSW1 110631Z 04019G24KT M05/M10 A2998 RMK A01 T10451104  RH  064%=      5-min Rain = 0
KSW1 110632Z 04020KT M05/M10 A2998 RMK A01 T10451104  RH  064%=      5-min Rain = 0
KSW1 110633Z 04022KT M05/M10 A2998 RMK A01 T10451104  RH  064%=      5-min Rain = 0
KSW1 110634Z 05019KT M05/M10 A2998 RMK A01 T10451104  RH  063%=      5-min Rain = 0
KSW1 110635Z 04019KT M05/M10 A2998 RMK A01 T10461104  RH  063%=      5-min Rain = 0
KSW1 110636Z 04018KT M05/M11 A2999 RMK A01 T10461105  RH  063%=      5-min Rain = 0
KSW1 110637Z 04014G20KT M05/M11 A2999 RMK A01 T10461105  RH  063%=      5-min Rain = 0
KSW1 110638Z 04017KT M05/M10 A2999 RMK A01 T10451104  RH  063%=      5-min Rain = 0
KSW1 110639Z 04018KT M05/M10 A2999 RMK A01 T10451104  RH  063%=      5-min Rain = 0
KSW1 110640Z 04018KT M05/M10 A2999 RMK A01 T10451104  RH  063%=      5-min Rain = 0
KSW1 110641Z 04018KT M05/M11 A2999 RMK A01 T10451105  RH  063%=      5-min Rain = 0
KSW1 110642Z 03015KT M05/M11 A30 RMK A01 T10451105  RH  063%=      5-min Rain = 0
KSW1 110643Z 04013KT M05/M10 A30 RMK A01 T10451104  RH  063%=      5-min Rain = 0
KSW1 110644Z 03016G21KT M04/M10 A30 RMK A01 T10441103  RH  063%=      5-min Rain = 0
KSW1 110645Z 04016KT M04/M11 A30 RMK A01 T10441105  RH  063%=      5-min Rain = 0
KSW1 110646Z 04016G21KT M04/M11 A2999 RMK A01 T10441105  RH  062%=      5-min Rain = 0
KSW1 110647Z 03017G23KT M04/M11 A30 RMK A01 T10441105  RH  062%=      5-min Rain = 0
KSW1 110648Z 04018G23KT M04/M11 A30 RMK A01 T10441106  RH  062%=      5-min Rain = 0
KSW1 110649Z 04021KT M04/M11 A30 RMK A01 T10441106  RH  062%=      5-min Rain = 0
KSW1 110650Z 03019KT M05/M11 A30 RMK A01 T10451106  RH  062%=      5-min Rain = 0
KSW1 110651Z 04016G21KT M05/M11 A30 RMK A01 T10451107  RH  062%=      5-min Rain = 0
KSW1 110652Z 04014G20KT M05/M11 A30 RMK A01 T10451106  RH  062%=      5-min Rain = 0
KSW1 110653Z 04018KT M05/M11 A30 RMK A01 T10451106  RH  062%=      5-min Rain = 0
KSW1 110654Z 04018KT M05/M11 A30 RMK A01 T10451106  RH  062%=      5-min Rain = 0
KSW1 110655Z 03018KT M05/M11 A30 RMK A01 T10451107  RH  062%=      5-min Rain = 0
KSW1 110656Z 04018KT M05/M11 A30 RMK A01 T10461107  RH  062%=      5-min Rain = 0
KSW1 110657Z 03016G22KT M05/M11 A30 RMK A01 T10461107  RH  062%=      5-min Rain = 0
KSW1 110658Z 03018KT M05/M11 A30 RMK A01 T10461107  RH  062%=      5-min Rain = 0
KSW1 110659Z 04023KT M05/M11 A30 RMK A01 T10471108  RH  062%=      5-min Rain = 0
KSW1 110700Z 03020G25KT M05/M11 A30 RMK A01 T10471109  RH  062%=      5-min Rain = 0
KSW1 110701Z 03019KT M05/M11 A30 RMK A01 T10481109  RH  062%=      5-min Rain = 0
KSW1 110702Z 04019G25KT M05/M11 A30 RMK A01 T10481109  RH  063%=      5-min Rain = 0
KSW1 110703Z 04019G25KT M05/M11 A30 RMK A01 T10491109  RH  063%=      5-min Rain = 0
KSW1 110704Z 04019KT M05/M11 A30 RMK A01 T10491109  RH  063%=      5-min Rain = 0
KSW1 110705Z 03020G25KT M05/M11 A30 RMK A01 T10491109  RH  063%=      5-min Rain = 0
KSW1 110706Z 04017KT M05/M11 A30 RMK A01 T10491109  RH  063%=      5-min Rain = 0
KSW1 110707Z 04019G24KT M05/M11 A30 RMK A01 T10491109  RH  063%=      5-min Rain = 0
KSW1 110708Z 05017KT M05/M11 A30 RMK A01 T10491109  RH  063%=      5-min Rain = 0
KSW1 110709Z 05019KT M05/M11 A30 RMK A01 T10491109  RH  063%=      5-min Rain = 0
KSW1 110710Z 04017G22KT M05/M11 A30 RMK A01 T10501109  RH  063%=      5-min Rain = 0
KSW1 110711Z 04016G22KT M05/M11 A30 RMK A01 T10501109  RH  063%=      5-min Rain = 0
KSW1 110712Z 04018G24KT M05/M11 A30 RMK A01 T10501109  RH  063%=      5-min Rain = 0
KSW1 110713Z 04018G24KT M05/M11 A30 RMK A01 T10501109  RH  063%=      5-min Rain = 0
KSW1 110714Z 04019G27KT M05/M11 A30 RMK A01 T10501109  RH  063%=      5-min Rain = 0
KSW1 110715Z 04025KT M05/M11 A30 RMK A01 T10501111  RH  063%=      5-min Rain = 0
KSW1 110716Z 04023KT M05/M11 A30 RMK A01 T10521113  RH  062%=      5-min Rain = 0
KSW1 110717Z 04016G23KT M05/M11 A30 RMK A01 T10531114  RH  063%=      5-min Rain = 0
KSW1 110718Z 04015KT M05/M11 A30 RMK A01 T10531113  RH  063%=      5-min Rain = 0
KSW1 110719Z 04019G26KT M05/M11 A30 RMK A01 T10531112  RH  063%=      5-min Rain = 0
KSW1 110720Z 04019G24KT M05/M11 A30 RMK A01 T10531112  RH  063%=      5-min Rain = 0
KSW1 110721Z 04022KT M05/M11 A30 RMK A01 T10531113  RH  063%=      5-min Rain = 0
KSW1 110722Z 04020KT M05/M11 A30 RMK A01 T10541113  RH  063%=      5-min Rain = 0
KSW1 110723Z 03020G27KT M05/M11 A30 RMK A01 T10541112  RH  063%=      5-min Rain = 0
KSW1 110724Z 04018KT M05/M11 A30 RMK A01 T10541113  RH  064%=      5-min Rain = 0
KSW1 110725Z 04017KT M05/M11 A30 RMK A01 T10541112  RH  064%=      5-min Rain = 0
KSW1 110726Z 04015G21KT M05/M11 A30 RMK A01 T10541112  RH  064%=      5-min Rain = 0
KSW1 110727Z 04020KT M05/M11 A30 RMK A01 T10541112  RH  064%=      5-min Rain = 0
KSW1 110728Z 03019KT M05/M11 A30 RMK A01 T10541112  RH  064%=      5-min Rain = 0
KSW1 110729Z 03020G27KT M06/M11 A30 RMK A01 T10551113  RH  064%=      5-min Rain = 0
KSW1 110730Z 03021KT M06/M11 A30 RMK A01 T10551113  RH  064%=      5-min Rain = 0
KSW1 110731Z 04022G27KT M06/M11 A30 RMK A01 T10551113  RH  064%=      5-min Rain = 0
KSW1 110732Z 04023KT M06/M11 A30 RMK A01 T10551113  RH  064%=      5-min Rain = 0
KSW1 110733Z 04021G26KT M06/M11 A30 RMK A01 T10561113  RH  064%=      5-min Rain = 0
KSW1 110734Z 04021KT M06/M11 A30 RMK A01 T10561113  RH  064%=      5-min Rain = 0
KSW1 110735Z 04021KT M06/M11 A30 RMK A01 T10561113  RH  064%=      5-min Rain = 0
KSW1 110736Z 04019G24KT M06/M11 A30 RMK A01 T10561114  RH  064%=      5-min Rain = 0
KSW1 110737Z 04017G22KT M06/M11 A30 RMK A01 T10561113  RH  064%=      5-min Rain = 0
KSW1 110738Z 04018KT M06/M11 A3001 RMK A01 T10561113  RH  064%=      5-min Rain = 0
KSW1 110739Z 04020G26KT M06/M11 A3001 RMK A01 T10561113  RH  064%=      5-min Rain = 0
KSW1 110740Z 03019G25KT M06/M11 A3001 RMK A01 T10561114  RH  064%=      5-min Rain = 0
KSW1 110741Z 04019KT M06/M11 A3001 RMK A01 T10561113  RH  064%=      5-min Rain = 0
KSW1 110742Z 04017G22KT M06/M11 A3001 RMK A01 T10561113  RH  064%=      5-min Rain = 0
KSW1 110743Z 03020KT M06/M11 A3001 RMK A01 T10561114  RH  064%=      5-min Rain = 0
KSW1 110744Z 03022KT M06/M11 A3001 RMK A01 T10561114  RH  064%=      5-min Rain = 0
KSW1 110745Z 03016G22KT M06/M12 A3001 RMK A01 T10571115  RH  063%=      5-min Rain = 0
KSW1 110746Z 03019G25KT M06/M12 A3001 RMK A01 T10571116  RH  064%=      5-min Rain = 0
KSW1 110747Z 03023KT M06/M12 A3002 RMK A01 T10571115  RH  064%=      5-min Rain = 0
KSW1 110748Z 03022KT M06/M12 A3002 RMK A01 T10581116  RH  064%=      5-min Rain = 0
KSW1 110749Z 03019G26KT M06/M12 A3002 RMK A01 T10591117  RH  064%=      5-min Rain = 0
KSW1 110750Z 03018G23KT M06/M12 A3002 RMK A01 T10591116  RH  064%=      5-min Rain = 0
KSW1 110751Z 03015G21KT M06/M12 A3002 RMK A01 T10591116  RH  064%=      5-min Rain = 0
KSW1 110752Z 03019KT M06/M12 A3002 RMK A01 T10591116  RH  064%=      5-min Rain = 0
KSW1 110753Z 03017KT M06/M12 A3002 RMK A01 T10591117  RH  064%=      5-min Rain = 0
KSW1 110754Z 03017KT M06/M12 A3002 RMK A01 T10591117  RH  064%=      5-min Rain = 0
KSW1 110755Z 03018KT M06/M12 A3002 RMK A01 T10591117  RH  064%=      5-min Rain = 0
KSW1 110756Z 03017KT M06/M12 A3002 RMK A01 T10591117  RH  064%=      5-min Rain = 0
KSW1 110757Z 04016KT M06/M12 A3002 RMK A01 T10591117  RH  064%=      5-min Rain = 0
KSW1 110758Z 04017KT M06/M12 A3002 RMK A01 T10591117  RH  064%=      5-min Rain = 0
KSW1 110759Z 03014KT M06/M12 A3002 RMK A01 T10591117  RH  064%=      5-min Rain = 0
KSW1 110800Z 03014KT M06/M12 A3002 RMK A01 T10581117  RH  063%=      5-min Rain = 0
KSW1 110801Z 04016G21KT M06/M12 A3002 RMK A01 T10591117  RH  063%=      5-min Rain = 0
KSW1 110802Z 03017KT M06/M12 A3002 RMK A01 T10581117  RH  063%=      5-min Rain = 0
KSW1 110803Z 03017KT M06/M12 A3003 RMK A01 T10581117  RH  063%=      5-min Rain = 0
KSW1 110804Z 03016KT M06/M12 A3003 RMK A01 T10581117  RH  063%=      5-min Rain = 0
KSW1 110805Z 03016KT M06/M12 A3003 RMK A01 T10581117  RH  063%=      5-min Rain = 0
KSW1 110806Z 03012KT M06/M12 A3003 RMK A01 T10591117  RH  063%=      5-min Rain = 0
KSW1 110807Z 03012KT M06/M12 A3002 RMK A01 T10581117  RH  063%=      5-min Rain = 0
KSW1 110808Z 04015KT M06/M12 A3002 RMK A01 T10571116  RH  063%=      5-min Rain = 0
KSW1 110809Z 03012KT M06/M12 A3002 RMK A01 T10571117  RH  063%=      5-min Rain = 0
KSW1 110810Z 04013KT M06/M12 A3003 RMK A01 T10581117  RH  063%=      5-min Rain = 0
KSW1 110811Z 04015KT M06/M12 A3003 RMK A01 T10571117  RH  063%=      5-min Rain = 0
KSW1 110812Z 04012KT M06/M12 A3003 RMK A01 T10571116  RH  063%=      5-min Rain = 0
KSW1 110813Z 04013KT M06/M12 A3003 RMK A01 T10571117  RH  063%=      5-min Rain = 0
KSW1 110814Z 03012KT M06/M12 A3003 RMK A01 T10581117  RH  063%=      5-min Rain = 0
KSW1 110815Z 03012KT M06/M12 A3003 RMK A01 T10571116  RH  063%=      5-min Rain = 0
KSW1 110816Z 03014KT M06/M12 A3003 RMK A01 T10571116  RH  063%=      5-min Rain = 0
KSW1 110817Z 03011KT M06/M12 A3003 RMK A01 T10571116  RH  063%=      5-min Rain = 0
KSW1 110818Z 04012KT M06/M12 A3003 RMK A01 T10571116  RH  063%=      5-min Rain = 0
KSW1 110819Z 04011KT M06/M12 A3003 RMK A01 T10571117  RH  063%=      5-min Rain = 0
KSW1 110820Z 03009KT M06/M12 A3003 RMK A01 T10571116  RH  063%=      5-min Rain = 0
KSW1 110821Z 03015G20KT M06/M12 A3003 RMK A01 T10561116  RH  063%=      5-min Rain = 0
KSW1 110822Z 03017KT M06/M12 A3003 RMK A01 T10561116  RH  063%=      5-min Rain = 0
KSW1 110823Z 03015KT M06/M12 A3003 RMK A01 T10571117  RH  062%=      5-min Rain = 0
KSW1 110824Z 03013G18KT M06/M12 A3003 RMK A01 T10571117  RH  062%=      5-min Rain = 0
KSW1 110825Z 02015KT M06/M12 A3003 RMK A01 T10571117  RH  063%=      5-min Rain = 0
KSW1 110826Z 02013KT M06/M12 A3003 RMK A01 T10571117  RH  063%=      5-min Rain = 0
KSW1 110827Z 02014KT M06/M12 A3003 RMK A01 T10571117  RH  062%=      5-min Rain = 0
KSW1 110828Z 02013G18KT M06/M12 A3003 RMK A01 T10571117  RH  062%=      5-min Rain = 0
KSW1 110829Z 03012KT M06/M12 A3003 RMK A01 T10571117  RH  062%=      5-min Rain = 0
KSW1 110830Z 03014KT M06/M12 A3003 RMK A01 T10571117  RH  062%=      5-min Rain = 0
KSW1 110831Z 03013KT M06/M12 A3003 RMK A01 T10571118  RH  062%=      5-min Rain = 0
KSW1 110832Z 02011KT M06/M12 A3003 RMK A01 T10571118  RH  062%=      5-min Rain = 0
KSW1 110833Z 03012G17KT M06/M12 A3004 RMK A01 T10561117  RH  062%=      5-min Rain = 0
KSW1 110834Z 02015KT M06/M12 A3004 RMK A01 T10561118  RH  062%=      5-min Rain = 0
KSW1 110835Z 02015KT M06/M12 A3004 RMK A01 T10571118  RH  062%=      5-min Rain = 0
KSW1 110836Z 02016KT M06/M12 A3004 RMK A01 T10571118  RH  062%=      5-min Rain = 0
KSW1 110837Z 03015G20KT M06/M12 A3004 RMK A01 T10581119  RH  062%=      5-min Rain = 0
KSW1 110838Z 03016KT M06/M12 A3004 RMK A01 T10581119  RH  062%=      5-min Rain = 0
KSW1 110839Z 03016KT M06/M12 A3004 RMK A01 T10581119  RH  062%=      5-min Rain = 0
KSW1 110840Z 03017KT M06/M12 A3004 RMK A01 T10581119  RH  062%=      5-min Rain = 0
KSW1 110841Z 03014KT M06/M12 A3004 RMK A01 T10591119  RH  062%=      5-min Rain = 0
KSW1 110842Z 02015KT M06/M12 A3004 RMK A01 T10591119  RH  062%=      5-min Rain = 0
KSW1 110843Z 02016KT M06/M12 A3004 RMK A01 T10591119  RH  063%=      5-min Rain = 0
KSW1 110844Z 02016KT M06/M12 A3004 RMK A01 T10591119  RH  063%=      5-min Rain = 0
KSW1 110845Z 03017G22KT M06/M12 A3004 RMK A01 T10591119  RH  063%=      5-min Rain = 0
KSW1 110846Z 03017KT M06/M12 A3004 RMK A01 T10601119  RH  063%=      5-min Rain = 0
KSW1 110847Z 03013G18KT M06/M12 A3004 RMK A01 T10601119  RH  063%=      5-min Rain = 0
KSW1 110848Z 03013KT M06/M12 A3004 RMK A01 T10601119  RH  063%=      5-min Rain = 0
KSW1 110849Z 03012KT M06/M12 A3004 RMK A01 T10601119  RH  063%=      5-min Rain = 0
KSW1 110850Z 03016KT M06/M12 A3004 RMK A01 T10601119  RH  063%=      5-min Rain = 0
KSW1 110851Z 03015G20KT M06/M12 A3004 RMK A01 T10601119  RH  063%=      5-min Rain = 0
KSW1 110852Z 02015G20KT M06/M12 A3004 RMK A01 T10601119  RH  063%=      5-min Rain = 0
KSW1 110853Z 03014G19KT M06/M12 A3004 RMK A01 T10601119  RH  063%=      5-min Rain = 0
KSW1 110854Z 02016KT M06/M12 A3004 RMK A01 T10611120  RH  063%=      5-min Rain = 0
KSW1 110855Z 02016KT M06/M12 A3004 RMK A01 T10611120  RH  063%=      5-min Rain = 0
KSW1 110856Z 02014KT M06/M12 A3004 RMK A01 T10611119  RH  063%=      5-min Rain = 0
KSW1 110857Z 02014KT M06/M12 A3004 RMK A01 T10611119  RH  063%=      5-min Rain = 0
KSW1 110858Z 03013KT M06/M12 A3004 RMK A01 T10611119  RH  063%=      5-min Rain = 0
KSW1 110859Z 03011KT M06/M12 A3004 RMK A01 T10611119  RH  063%=      5-min Rain = 0
KSW1 110900Z 02012G17KT M06/M12 A3004 RMK A01 T10611119  RH  063%=      5-min Rain = 0
KSW1 110901Z 02013KT M06/M12 A3004 RMK A01 T10611119  RH  063%=      5-min Rain = 0
KSW1 110902Z 03012KT M06/M12 A3004 RMK A01 T10611119  RH  063%=      5-min Rain = 0
KSW1 110903Z 03015KT M06/M12 A3003 RMK A01 T10611119  RH  063%=      5-min Rain = 0
KSW1 110904Z 03014KT M06/M12 A3003 RMK A01 T10611119  RH  063%=      5-min Rain = 0
KSW1 110905Z 03014KT M06/M12 A3003 RMK A01 T10601119  RH  063%=      5-min Rain = 0
KSW1 110906Z 03011KT M06/M12 A3003 RMK A01 T10611119  RH  063%=      5-min Rain = 0
KSW1 110907Z 03011KT M06/M12 A3004 RMK A01 T10611119  RH  063%=      5-min Rain = 0
KSW1 110908Z 03014KT M06/M12 A3004 RMK A01 T10601119  RH  063%=      5-min Rain = 0
KSW1 110909Z 02016KT M06/M12 A3004 RMK A01 T10601119  RH  063%=      5-min Rain = 0
KSW1 110910Z 02017KT M06/M12 A3004 RMK A01 T10601119  RH  063%=      5-min Rain = 0
KSW1 110911Z 02017G22KT M06/M12 A3004 RMK A01 T10601119  RH  063%=      5-min Rain = 0
KSW1 110912Z 02016KT M06/M12 A3004 RMK A01 T10601119  RH  063%=      5-min Rain = 0
KSW1 110913Z 02016KT M06/M12 A3004 RMK A01 T10601119  RH  063%=      5-min Rain = 0
KSW1 110914Z 03016KT M06/M12 A3004 RMK A01 T10601119  RH  063%=      5-min Rain = 0
KSW1 110915Z 02017KT M06/M12 A3004 RMK A01 T10601119  RH  063%=      5-min Rain = 0
KSW1 110916Z 02015KT M06/M12 A3004 RMK A01 T10601119  RH  063%=      5-min Rain = 0
KSW1 110917Z 01014KT M06/M12 A3004 RMK A01 T10601119  RH  063%=      5-min Rain = 0
KSW1 110918Z 02013KT M06/M12 A3004 RMK A01 T10601119  RH  063%=      5-min Rain = 0
KSW1 110919Z 02009KT M06/M12 A3004 RMK A01 T10601119  RH  063%=      5-min Rain = 0
KSW1 110920Z 02009KT M06/M12 A3004 RMK A01 T10591119  RH  063%=      5-min Rain = 0
KSW1 110921Z 02013G18KT M06/M12 A3004 RMK A01 T10591118  RH  063%=      5-min Rain = 0
KSW1 110922Z 02015KT M06/M12 A3004 RMK A01 T10591119  RH  063%=      5-min Rain = 0
KSW1 110923Z 02016KT M06/M12 A3004 RMK A01 T10601120  RH  062%=      5-min Rain = 0
KSW1 110924Z 02017KT M06/M12 A3004 RMK A01 T10601120  RH  063%=      5-min Rain = 0
KSW1 110925Z 02017KT M06/M12 A3004 RMK A01 T10601120  RH  063%=      5-min Rain = 0
KSW1 110926Z 02015KT M06/M12 A3004 RMK A01 T10611120  RH  063%=      5-min Rain = 0
KSW1 110927Z 03013KT M06/M12 A3004 RMK A01 T10611120  RH  063%=      5-min Rain = 0
KSW1 110928Z 03013KT M06/M12 A3004 RMK A01 T10601119  RH  063%=      5-min Rain = 0
KSW1 110929Z 02013KT M06/M12 A3004 RMK A01 T10601119  RH  063%=      5-min Rain = 0
KSW1 110930Z 02014KT M06/M12 A3005 RMK A01 T10601120  RH  063%=      5-min Rain = 0
KSW1 110931Z 02011KT M06/M12 A3005 RMK A01 T10601120  RH  063%=      5-min Rain = 0
KSW1 110932Z 02014KT M06/M12 A3005 RMK A01 T10601119  RH  063%=      5-min Rain = 0
KSW1 110933Z 02016KT M06/M12 A3005 RMK A01 T10601119  RH  063%=      5-min Rain = 0
KSW1 110934Z 02014KT M06/M12 A3005 RMK A01 T10601120  RH  063%=      5-min Rain = 0
KSW1 110935Z 02013KT M06/M12 A3005 RMK A01 T10601120  RH  063%=      5-min Rain = 0
KSW1 110936Z 02013G18KT M06/M12 A3005 RMK A01 T10601119  RH  063%=      5-min Rain = 0
KSW1 110937Z 02014KT M06/M12 A3005 RMK A01 T10601119  RH  063%=      5-min Rain = 0
KSW1 110938Z 02011G17KT M06/M12 A3005 RMK A01 T10601119  RH  063%=      5-min Rain = 0
KSW1 110939Z 02013KT M06/M12 A3005 RMK A01 T10601119  RH  063%=      5-min Rain = 0
KSW1 110940Z 02016KT M06/M12 A3005 RMK A01 T10591119  RH  063%=      5-min Rain = 0
KSW1 110941Z 02012KT M06/M12 A3005 RMK A01 T10591119  RH  063%=      5-min Rain = 0
KSW1 110942Z 01014KT M06/M12 A3005 RMK A01 T10601119  RH  063%=      5-min Rain = 0
KSW1 110943Z 02012KT M06/M12 A3005 RMK A01 T10601119  RH  063%=      5-min Rain = 0
KSW1 110944Z 02010KT M06/M12 A3005 RMK A01 T10601119  RH  063%=      5-min Rain = 0
KSW1 110945Z 02011KT M06/M12 A3005 RMK A01 T10601119  RH  063%=      5-min Rain = 0
KSW1 110946Z 01012KT M06/M12 A3005 RMK A01 T10601119  RH  063%=      5-min Rain = 0
KSW1 110947Z 01015G20KT M06/M12 A3005 RMK A01 T10601119  RH  063%=      5-min Rain = 0
KSW1 110948Z 01015KT M06/M12 A3005 RMK A01 T10601120  RH  063%=      5-min Rain = 0
KSW1 110949Z 01014KT M06/M12 A3006 RMK A01 T10611120  RH  063%=      5-min Rain = 0
KSW1 110950Z 01015G21KT M06/M12 A3006 RMK A01 T10621120  RH  063%=      5-min Rain = 0
KSW1 110951Z 01015KT M06/M12 A3006 RMK A01 T10621120  RH  063%=      5-min Rain = 0
KSW1 110952Z 02013KT M06/M12 A3006 RMK A01 T10621121  RH  063%=      5-min Rain = 0
KSW1 110953Z 01014KT M06/M12 A3006 RMK A01 T10621121  RH  063%=      5-min Rain = 0
KSW1 110954Z 01017KT M06/M12 A3006 RMK A01 T10621121  RH  063%=      5-min Rain = 0
KSW1 110955Z 01017KT M06/M12 A3006 RMK A01 T10631121  RH  063%=      5-min Rain = 0
KSW1 110956Z 01016G21KT M06/M12 A3006 RMK A01 T10631121  RH  064%=      5-min Rain = 0
KSW1 110957Z 01013G18KT M06/M12 A3006 RMK A01 T10631121  RH  064%=      5-min Rain = 0
KSW1 110958Z 01014KT M06/M12 A3006 RMK A01 T10631120  RH  064%=      5-min Rain = 0
KSW1 110959Z 01017KT M06/M12 A3006 RMK A01 T10631121  RH  064%=      5-min Rain = 0
KSW1 111000Z 01015KT M06/M12 A3006 RMK A01 T10631121  RH  064%=      5-min Rain = 0
KSW1 111001Z 01013KT M06/M12 A3006 RMK A01 T10631120  RH  064%=      5-min Rain = 0
KSW1 111002Z 01016KT M06/M12 A3006 RMK A01 T10631121  RH  064%=      5-min Rain = 0
KSW1 111003Z 02014KT M06/M12 A3005 RMK A01 T10631121  RH  064%=      5-min Rain = 0
KSW1 111004Z 01016KT M06/M12 A3006 RMK A01 T10631120  RH  064%=      5-min Rain = 0
KSW1 111005Z 02016KT M06/M12 A3006 RMK A01 T10631120  RH  064%=      5-min Rain = 0
KSW1 111006Z 01012KT M06/M12 A3006 RMK A01 T10631120  RH  064%=      5-min Rain = 0
KSW1 111007Z 01014KT M06/M12 A3006 RMK A01 T10631120  RH  064%=      5-min Rain = 0
KSW1 111008Z 01015KT M06/M12 A3006 RMK A01 T10631120  RH  064%=      5-min Rain = 0
KSW1 111009Z 01015KT M06/M12 A3006 RMK A01 T10631120  RH  064%=      5-min Rain = 0
KSW1 111010Z 02016KT M06/M12 A3006 RMK A01 T10631120  RH  064%=      5-min Rain = 0
KSW1 111011Z 02015G21KT M06/M12 A3006 RMK A01 T10631120  RH  064%=      5-min Rain = 0
KSW1 111012Z 02012G17KT M06/M12 A3006 RMK A01 T10631120  RH  064%=      5-min Rain = 0
KSW1 111013Z 01014KT M06/M12 A3006 RMK A01 T10631119  RH  064%=      5-min Rain = 0
KSW1 111014Z 01014KT M06/M12 A3006 RMK A01 T10631120  RH  064%=      5-min Rain = 0
KSW1 111015Z 01016KT M06/M12 A3006 RMK A01 T10631120  RH  064%=      5-min Rain = 0
KSW1 111016Z 01017KT M06/M12 A3006 RMK A01 T10631120  RH  064%=      5-min Rain = 0
KSW1 111017Z 01018KT M06/M12 A3006 RMK A01 T10631120  RH  064%=      5-min Rain = 0
KSW1 111018Z 01014G19KT M06/M12 A3006 RMK A01 T10641120  RH  064%=      5-min Rain = 0
KSW1 111019Z 01012G17KT M06/M12 A3006 RMK A01 T10641120  RH  064%=      5-min Rain = 0
KSW1 111020Z 02017KT M06/M12 A3006 RMK A01 T10631120  RH  064%=      5-min Rain = 0
KSW1 111021Z 02012G17KT M06/M12 A3007 RMK A01 T10631120  RH  064%=      5-min Rain = 0
KSW1 111022Z 01015G20KT M06/M12 A3007 RMK A01 T10631119  RH  064%=      5-min Rain = 0
KSW1 111023Z 01015KT M06/M12 A3007 RMK A01 T10631119  RH  064%=      5-min Rain = 0
KSW1 111024Z 01014G19KT M06/M12 A3007 RMK A01 T10631119  RH  064%=      5-min Rain = 0
KSW1 111025Z 01014KT M06/M12 A3007 RMK A01 T10631119  RH  064%=      5-min Rain = 0
KSW1 111026Z 01010KT M06/M12 A3007 RMK A01 T10631119  RH  064%=      5-min Rain = 0
KSW1 111027Z 01014G19KT M06/M12 A3007 RMK A01 T10631119  RH  064%=      5-min Rain = 0
KSW1 111028Z 01017G22KT M06/M12 A3007 RMK A01 T10631120  RH  064%=      5-min Rain = 0
KSW1 111029Z 01017KT M06/M12 A3007 RMK A01 T10631120  RH  064%=      5-min Rain = 0
KSW1 111030Z 01017KT M06/M12 A3007 RMK A01 T10641120  RH  064%=      5-min Rain = 0
KSW1 111031Z 01014KT M06/M12 A3007 RMK A01 T10641120  RH  064%=      5-min Rain = 0
KSW1 111032Z 01018KT M06/M12 A3007 RMK A01 T10641120  RH  065%=      5-min Rain = 0
KSW1 111033Z 01016KT M06/M12 A3007 RMK A01 T10641120  RH  065%=      5-min Rain = 0
KSW1 111034Z 01016KT M06/M12 A3007 RMK A01 T10641120  RH  065%=      5-min Rain = 0
KSW1 111035Z 01017G22KT M06/M12 A3007 RMK A01 T10641120  RH  065%=      5-min Rain = 0
KSW1 111036Z 01017KT M06/M12 A3007 RMK A01 T10641120  RH  065%=      5-min Rain = 0
KSW1 111037Z 02018KT M07/M12 A3007 RMK A01 T10651120  RH  065%=      5-min Rain = 0
KSW1 111038Z 02018KT M07/M12 A3007 RMK A01 T10651120  RH  065%=      5-min Rain = 0
KSW1 111039Z 02017KT M07/M12 A3007 RMK A01 T10651120  RH  065%=      5-min Rain = 0
KSW1 111040Z 02014G21KT M07/M12 A3007 RMK A01 T10651120  RH  065%=      5-min Rain = 0
KSW1 111041Z 02015KT M07/M12 A3007 RMK A01 T10651120  RH  065%=      5-min Rain = 0
KSW1 111042Z 02017KT M07/M12 A3007 RMK A01 T10651120  RH  065%=      5-min Rain = 0
KSW1 111043Z 02015KT M07/M12 A3007 RMK A01 T10651120  RH  065%=      5-min Rain = 0
KSW1 111044Z 02015KT M07/M12 A3007 RMK A01 T10651120  RH  065%=      5-min Rain = 0
KSW1 111045Z 02017G22KT M07/M12 A3007 RMK A01 T10651120  RH  065%=      5-min Rain = 0
KSW1 111046Z 02016G21KT M07/M12 A3007 RMK A01 T10651121  RH  065%=      5-min Rain = 0
KSW1 111047Z 02016KT M07/M12 A3007 RMK A01 T10651121  RH  065%=      5-min Rain = 0
KSW1 111048Z 02017G22KT M07/M12 A3007 RMK A01 T10651120  RH  065%=      5-min Rain = 0
KSW1 111049Z 02016KT M07/M12 A3007 RMK A01 T10651120  RH  065%=      5-min Rain = 0
KSW1 111050Z 02015KT M07/M12 A3007 RMK A01 T10651120  RH  065%=      5-min Rain = 0
KSW1 111051Z 02016G22KT M07/M12 A3007 RMK A01 T10651120  RH  065%=      5-min Rain = 0
KSW1 111052Z 02015KT M07/M12 A3008 RMK A01 T10651121  RH  065%=      5-min Rain = 0
KSW1 111053Z 02017KT M07/M12 A3008 RMK A01 T10651120  RH  065%=      5-min Rain = 0
KSW1 111054Z 01016KT M07/M12 A3008 RMK A01 T10651120  RH  065%=      5-min Rain = 0
KSW1 111055Z 02017KT M07/M12 A3007 RMK A01 T10651121  RH  065%=      5-min Rain = 0
KSW1 111056Z 02016KT M07/M12 A3008 RMK A01 T10651121  RH  065%=      5-min Rain = 0
KSW1 111057Z 01017KT M07/M12 A3008 RMK A01 T10651121  RH  065%=      5-min Rain = 0
KSW1 111058Z 02015KT M07/M12 A3008 RMK A01 T10651121  RH  065%=      5-min Rain = 0
KSW1 111059Z 02015KT M07/M12 A3008 RMK A01 T10651121  RH  065%=      5-min Rain = 0
KSW1 111100Z 02015KT M07/M12 A3008 RMK A01 T10651121  RH  065%=      5-min Rain = 0
KSW1 111101Z 02016KT M07/M12 A3008 RMK A01 T10651121  RH  065%=      5-min Rain = 0
KSW1 111102Z 02016KT M07/M12 A3008 RMK A01 T10651121  RH  065%=      5-min Rain = 0
KSW1 111103Z 02017KT M07/M12 A3008 RMK A01 T10651121  RH  065%=      5-min Rain = 0
KSW1 111104Z 02015KT M07/M12 A3008 RMK A01 T10651121  RH  065%=      5-min Rain = 0
KSW1 111105Z 02010G19KT M07/M12 A3008 RMK A01 T10651121  RH  065%=      5-min Rain = 0
KSW1 111106Z 02015KT M07/M12 A3008 RMK A01 T10651120  RH  065%=      5-min Rain = 0
KSW1 111107Z 02013KT M07/M12 A3008 RMK A01 T10651121  RH  064%=      5-min Rain = 0
KSW1 111108Z 02018KT M07/M12 A3008 RMK A01 T10651121  RH  064%=      5-min Rain = 0
KSW1 111109Z 02017KT M07/M12 A3008 RMK A01 T10651121  RH  064%=      5-min Rain = 0
KSW1 111110Z 01016KT M07/M12 A3008 RMK A01 T10651121  RH  064%=      5-min Rain = 0
KSW1 111111Z 01018KT M07/M12 A3008 RMK A01 T10651121  RH  065%=      5-min Rain = 0
KSW1 111112Z 02015KT M07/M12 A3008 RMK A01 T10651121  RH  065%=      5-min Rain = 0
KSW1 111113Z 02015KT M07/M12 A3008 RMK A01 T10651121  RH  065%=      5-min Rain = 0
KSW1 111114Z 02015G22KT M07/M12 A3008 RMK A01 T10651120  RH  065%=      5-min Rain = 0
KSW1 111115Z 02018KT M07/M12 A3008 RMK A01 T10651121  RH  064%=      5-min Rain = 0
KSW1 111116Z 02018G23KT M07/M12 A3009 RMK A01 T10651121  RH  064%=      5-min Rain = 0
KSW1 111117Z 02017KT M07/M12 A3009 RMK A01 T10651121  RH  064%=      5-min Rain = 0
KSW1 111118Z 02018KT M07/M12 A3009 RMK A01 T10661121  RH  065%=      5-min Rain = 0
KSW1 111119Z 01015KT M07/M12 A3009 RMK A01 T10661121  RH  065%=      5-min Rain = 0
KSW1 111120Z 02017KT M07/M12 A3009 RMK A01 T10661121  RH  065%=      5-min Rain = 0
KSW1 111121Z 02014KT M07/M12 A3009 RMK A01 T10661121  RH  065%=      5-min Rain = 0
KSW1 111122Z 02013KT M07/M12 A3009 RMK A01 T10661121  RH  065%=      5-min Rain = 0
KSW1 111123Z 02013G18KT M07/M12 A3009 RMK A01 T10651121  RH  065%=      5-min Rain = 0
KSW1 111124Z 02015KT M07/M12 A3009 RMK A01 T10651121  RH  065%=      5-min Rain = 0
KSW1 111125Z 02015KT M07/M12 A3009 RMK A01 T10651121  RH  065%=      5-min Rain = 0
KSW1 111126Z 02016KT M07/M12 A3009 RMK A01 T10651121  RH  065%=      5-min Rain = 0
KSW1 111127Z 01015KT M07/M12 A3009 RMK A01 T10651121  RH  065%=      5-min Rain = 0
KSW1 111128Z 01014KT M07/M12 A3009 RMK A01 T10651121  RH  065%=      5-min Rain = 0
KSW1 111129Z 01013KT M07/M12 A3009 RMK A01 T10651121  RH  065%=      5-min Rain = 0
KSW1 111130Z 01013KT M07/M12 A3009 RMK A01 T10651121  RH  065%=      5-min Rain = 0
KSW1 111131Z 02014KT M06/M12 A3009 RMK A01 T10641120  RH  065%=      5-min Rain = 0
KSW1 111132Z 02014KT M06/M12 A3009 RMK A01 T10641120  RH  064%=      5-min Rain = 0
KSW1 111133Z 02013KT M06/M12 A3009 RMK A01 T10641120  RH  064%=      5-min Rain = 0
KSW1 111134Z 01014KT M06/M12 A3009 RMK A01 T10641120  RH  065%=      5-min Rain = 0
KSW1 111135Z 01013KT M06/M12 A3009 RMK A01 T10641120  RH  065%=      5-min Rain = 0
KSW1 111136Z 01011KT M06/M12 A3009 RMK A01 T10641120  RH  065%=      5-min Rain = 0
KSW1 111137Z 02012G17KT M06/M12 A3009 RMK A01 T10641120  RH  065%=      5-min Rain = 0
KSW1 111138Z 02012G18KT M06/M12 A301 RMK A01 T10641120  RH  064%=      5-min Rain = 0
KSW1 111139Z 01011KT M06/M12 A301 RMK A01 T10641120  RH  064%=      5-min Rain = 0
KSW1 111140Z 01011KT M06/M12 A301 RMK A01 T10641120  RH  064%=      5-min Rain = 0
KSW1 111141Z 01012KT M06/M12 A301 RMK A01 T10641120  RH  064%=      5-min Rain = 0
KSW1 111142Z 02013G18KT M06/M12 A301 RMK A01 T10641119  RH  065%=      5-min Rain = 0
KSW1 111143Z 02015KT M06/M12 A3009 RMK A01 T10641119  RH  065%=      5-min Rain = 0
KSW1 111144Z 02012KT M06/M12 A301 RMK A01 T10641120  RH  065%=      5-min Rain = 0
KSW1 111145Z 02013KT M06/M12 A301 RMK A01 T10641120  RH  065%=      5-min Rain = 0
KSW1 111146Z 02014KT M06/M12 A301 RMK A01 T10641120  RH  065%=      5-min Rain = 0
KSW1 111147Z 02015KT M06/M12 A301 RMK A01 T10641120  RH  065%=      5-min Rain = 0
KSW1 111148Z 02015KT M06/M12 A301 RMK A01 T10641120  RH  065%=      5-min Rain = 0
KSW1 111149Z 02015KT M06/M12 A301 RMK A01 T10641120  RH  065%=      5-min Rain = 0
KSW1 111150Z 01010KT M06/M12 A301 RMK A01 T10641120  RH  065%=      5-min Rain = 0
KSW1 111151Z 02010KT M06/M12 A301 RMK A01 T10641120  RH  064%=      5-min Rain = 0
KSW1 111152Z 02012KT M06/M12 A301 RMK A01 T10641120  RH  064%=      5-min Rain = 0
KSW1 111153Z 02012KT M06/M12 A301 RMK A01 T10641120  RH  064%=      5-min Rain = 0
KSW1 111154Z 02011KT M06/M12 A301 RMK A01 T10641120  RH  064%=      5-min Rain = 0
KSW1 111155Z 02011G17KT M06/M12 A301 RMK A01 T10641120  RH  064%=      5-min Rain = 0
KSW1 111156Z 02015KT M06/M12 A301 RMK A01 T10631120  RH  064%=      5-min Rain = 0
KSW1 111157Z 02017KT M06/M12 A301 RMK A01 T10631120  RH  064%=      5-min Rain = 0
KSW1 111158Z 02012KT M06/M12 A301 RMK A01 T10641120  RH  064%=      5-min Rain = 0
KSW1 111159Z 01011KT M06/M12 A301 RMK A01 T10641120  RH  064%=      5-min Rain = 0
KSW1 111200Z 02011KT M06/M12 A301 RMK A01 T10641120  RH  064%=      5-min Rain = 0
KSW1 111201Z 02011KT M06/M12 A301 RMK A01 T10631120  RH  064%=      5-min Rain = 0
KSW1 111202Z 01012KT M06/M12 A301 RMK A01 T10631120  RH  064%=      5-min Rain = 0
KSW1 111203Z 01010KT M06/M12 A301 RMK A01 T10631120  RH  064%=      5-min Rain = 0
KSW1 111204Z 02012G17KT M06/M12 A301 RMK A01 T10631120  RH  064%=      5-min Rain = 0
KSW1 111205Z 02012G20KT M06/M12 A301 RMK A01 T10631120  RH  064%=      5-min Rain = 0
KSW1 111206Z 01015KT M06/M12 A301 RMK A01 T10631120  RH  064%=      5-min Rain = 0
KSW1 111207Z 01017KT M06/M12 A301 RMK A01 T10631120  RH  064%=      5-min Rain = 0
KSW1 111208Z 01014KT M06/M12 A3011 RMK A01 T10631120  RH  064%=      5-min Rain = 0
KSW1 111209Z 01016G21KT M06/M12 A3011 RMK A01 T10631120  RH  064%=      5-min Rain = 0
KSW1 111210Z 01014G19KT M06/M12 A3011 RMK A01 T10631120  RH  064%=      5-min Rain = 0
KSW1 111211Z 00016G21KT M06/M12 A3011 RMK A01 T10631120  RH  064%=      5-min Rain = 0
KSW1 111212Z 01014G19KT M06/M12 A3011 RMK A01 T10631120  RH  064%=      5-min Rain = 0
KSW1 111213Z 01014KT M06/M12 A3011 RMK A01 T10631120  RH  064%=      5-min Rain = 0
KSW1 111214Z 01015KT M06/M12 A3011 RMK A01 T10631120  RH  064%=      5-min Rain = 0
KSW1 111215Z 02014KT M06/M12 A3011 RMK A01 T10631120  RH  064%=      5-min Rain = 0
KSW1 111216Z 01014KT M06/M12 A3011 RMK A01 T10631120  RH  064%=      5-min Rain = 0
KSW1 111217Z 01013KT M06/M12 A3011 RMK A01 T10631120  RH  064%=      5-min Rain = 0
KSW1 111218Z 01011G17KT M06/M12 A3011 RMK A01 T10631120  RH  064%=      5-min Rain = 0
KSW1 111219Z 01014G19KT M06/M12 A3011 RMK A01 T10631120  RH  064%=      5-min Rain = 0
KSW1 111220Z 01016KT M06/M12 A3011 RMK A01 T10631120  RH  064%=      5-min Rain = 0
KSW1 111221Z 01016KT M06/M12 A3011 RMK A01 T10621119  RH  064%=      5-min Rain = 0
KSW1 111222Z 02016G21KT M06/M12 A3011 RMK A01 T10631120  RH  064%=      5-min Rain = 0
KSW1 111223Z 02014KT M06/M12 A3011 RMK A01 T10631120  RH  064%=      5-min Rain = 0
KSW1 111224Z 01011KT M06/M12 A3011 RMK A01 T10631120  RH  064%=      5-min Rain = 0
KSW1 111225Z 01015G20KT M06/M12 A3011 RMK A01 T10631119  RH  064%=      5-min Rain = 0
KSW1 111226Z 01013KT M06/M12 A3011 RMK A01 T10621120  RH  064%=      5-min Rain = 0
KSW1 111227Z 01016G21KT M06/M12 A3011 RMK A01 T10621120  RH  064%=      5-min Rain = 0
KSW1 111228Z 01017G22KT M06/M12 A3011 RMK A01 T10621120  RH  064%=      5-min Rain = 0
KSW1 111229Z 01014G19KT M06/M12 A3011 RMK A01 T10621120  RH  064%=      5-min Rain = 0
KSW1 111230Z 00015KT M06/M12 A3012 RMK A01 T10621119  RH  064%=      5-min Rain = 0
KSW1 111231Z 00013KT M06/M12 A3012 RMK A01 T10621120  RH  064%=      5-min Rain = 0
KSW1 111232Z 01013KT M06/M12 A3012 RMK A01 T10621120  RH  064%=      5-min Rain = 0
KSW1 111233Z 01012KT M06/M12 A3012 RMK A01 T10621120  RH  064%=      5-min Rain = 0
KSW1 111234Z 01014KT M06/M12 A3013 RMK A01 T10621120  RH  063%=      5-min Rain = 0
KSW1 111235Z 01015KT M06/M12 A3013 RMK A01 T10611120  RH  063%=      5-min Rain = 0
KSW1 111236Z 01013KT M06/M12 A3013 RMK A01 T10621120  RH  063%=      5-min Rain = 0
KSW1 111237Z 01014KT M06/M12 A3013 RMK A01 T10621120  RH  063%=      5-min Rain = 0
KSW1 111238Z 01012KT M06/M12 A3013 RMK A01 T10621120  RH  063%=      5-min Rain = 0
KSW1 111239Z 01011G17KT M06/M12 A3013 RMK A01 T10611119  RH  063%=      5-min Rain = 0
KSW1 111240Z 01016KT M06/M12 A3013 RMK A01 T10621120  RH  063%=      5-min Rain = 0
KSW1 111241Z 01016KT M06/M12 A3012 RMK A01 T10621120  RH  063%=      5-min Rain = 0
KSW1 111242Z 01016KT M06/M12 A3012 RMK A01 T10621120  RH  063%=      5-min Rain = 0
KSW1 111243Z 00013G18KT M06/M12 A3012 RMK A01 T10621120  RH  063%=      5-min Rain = 0
KSW1 111244Z 01015KT M06/M12 A3012 RMK A01 T10621120  RH  063%=      5-min Rain = 0
KSW1 111245Z 01012KT M06/M12 A3013 RMK A01 T10621120  RH  063%=      5-min Rain = 0
KSW1 111246Z 01014KT M06/M12 A3013 RMK A01 T10621120  RH  063%=      5-min Rain = 0
KSW1 111247Z 01015KT M06/M12 A3013 RMK A01 T10611120  RH  063%=      5-min Rain = 0
KSW1 111248Z 01015KT M06/M12 A3013 RMK A01 T10621120  RH  063%=      5-min Rain = 0
KSW1 111249Z 01014G19KT M06/M12 A3013 RMK A01 T10621120  RH  063%=      5-min Rain = 0
KSW1 111250Z 36016KT M06/M12 A3013 RMK A01 T10621120  RH  063%=      5-min Rain = 0
KSW1 111251Z 00018KT M06/M12 A3013 RMK A01 T10611120  RH  063%=      5-min Rain = 0
KSW1 111252Z 36016KT M06/M12 A3013 RMK A01 T10621120  RH  063%=      5-min Rain = 0
KSW1 111253Z 00017KT M06/M12 A3013 RMK A01 T10621120  RH  063%=      5-min Rain = 0
KSW1 111254Z 01015G20KT M06/M12 A3013 RMK A01 T10621120  RH  063%=      5-min Rain = 0
KSW1 111255Z 00015KT M06/M12 A3014 RMK A01 T10611120  RH  063%=      5-min Rain = 0
KSW1 111256Z 01017KT M06/M12 A3014 RMK A01 T10621120  RH  063%=      5-min Rain = 0
KSW1 111257Z 01017KT M06/M12 A3014 RMK A01 T10621120  RH  063%=      5-min Rain = 0
KSW1 111258Z 01016KT M06/M12 A3014 RMK A01 T10621120  RH  063%=      5-min Rain = 0
KSW1 111259Z 00016KT M06/M12 A3013 RMK A01 T10611120  RH  063%=      5-min Rain = 0
KSW1 111300Z 00016KT M06/M12 A3013 RMK A01 T10621120  RH  063%=      5-min Rain = 0
KSW1 111301Z 01015KT M06/M12 A3014 RMK A01 T10621120  RH  063%=      5-min Rain = 0
KSW1 111302Z 00015KT M06/M12 A3014 RMK A01 T10621120  RH  064%=      5-min Rain = 0
KSW1 111303Z 00013KT M06/M12 A3014 RMK A01 T10611119  RH  064%=      5-min Rain = 0
KSW1 111304Z 01012KT M06/M12 A3014 RMK A01 T10611119  RH  063%=      5-min Rain = 0
KSW1 111305Z 00012KT M06/M12 A3014 RMK A01 T10611119  RH  063%=      5-min Rain = 0
KSW1 111306Z 01013KT M06/M12 A3014 RMK A01 T10611119  RH  063%=      5-min Rain = 0
KSW1 111307Z 01012KT M06/M12 A3014 RMK A01 T10601119  RH  063%=      5-min Rain = 0
KSW1 111308Z 01012KT M06/M12 A3014 RMK A01 T10611119  RH  063%=      5-min Rain = 0
KSW1 111309Z 00013KT M06/M12 A3014 RMK A01 T10611119  RH  063%=      5-min Rain = 0
KSW1 111310Z 36013G18KT M06/M12 A3014 RMK A01 T10611119  RH  063%=      5-min Rain = 0
KSW1 111311Z 36013KT M06/M12 A3014 RMK A01 T10611119  RH  063%=      5-min Rain = 0
KSW1 111312Z 00014KT M06/M12 A3014 RMK A01 T10611119  RH  063%=      5-min Rain = 0
KSW1 111313Z 01014KT M06/M12 A3014 RMK A01 T10611119  RH  063%=      5-min Rain = 0
KSW1 111314Z 01015KT M06/M12 A3014 RMK A01 T10611119  RH  063%=      5-min Rain = 0
KSW1 111315Z 01013KT M06/M12 A3015 RMK A01 T10601119  RH  063%=      5-min Rain = 0
KSW1 111316Z 02012KT M06/M12 A3014 RMK A01 T10611119  RH  063%=      5-min Rain = 0
KSW1 111317Z 02012KT M06/M12 A3014 RMK A01 T10611119  RH  063%=      5-min Rain = 0
KSW1 111318Z 01014KT M06/M12 A3015 RMK A01 T10601119  RH  063%=      5-min Rain = 0
KSW1 111319Z 01012KT M06/M12 A3015 RMK A01 T10601118  RH  063%=      5-min Rain = 0
KSW1 111320Z 36012KT M06/M12 A3015 RMK A01 T10601119  RH  063%=      5-min Rain = 0
KSW1 111321Z 01012KT M06/M12 A3015 RMK A01 T10601119  RH  063%=      5-min Rain = 0
KSW1 111322Z 00014G21KT M06/M12 A3015 RMK A01 T10601119  RH  063%=      5-min Rain = 0
KSW1 111323Z 01016KT M06/M12 A3015 RMK A01 T10601119  RH  063%=      5-min Rain = 0
KSW1 111324Z 01016KT M06/M12 A3015 RMK A01 T10601119  RH  063%=      5-min Rain = 0
KSW1 111325Z 01016G21KT M06/M12 A3015 RMK A01 T10611120  RH  063%=      5-min Rain = 0
KSW1 111326Z 01014KT M06/M12 A3015 RMK A01 T10611120  RH  063%=      5-min Rain = 0
KSW1 111327Z 00017KT M06/M12 A3015 RMK A01 T10611119  RH  063%=      5-min Rain = 0
KSW1 111328Z 01018KT M06/M12 A3015 RMK A01 T10611119  RH  063%=      5-min Rain = 0
KSW1 111329Z 00016KT M06/M12 A3015 RMK A01 T10611120  RH  063%=      5-min Rain = 0
KSW1 111330Z 00013KT M06/M12 A3016 RMK A01 T10611119  RH  063%=      5-min Rain = 0
KSW1 111331Z 01014G19KT M06/M12 A3016 RMK A01 T10601119  RH  063%=      5-min Rain = 0
KSW1 111332Z 01013KT M06/M12 A3016 RMK A01 T10601119  RH  063%=      5-min Rain = 0
KSW1 111333Z 01016KT M06/M12 A3016 RMK A01 T10601119  RH  063%=      5-min Rain = 0
KSW1 111334Z 01013KT M06/M12 A3016 RMK A01 T10601120  RH  063%=      5-min Rain = 0
KSW1 111335Z 01014KT M06/M12 A3016 RMK A01 T10601119  RH  063%=      5-min Rain = 0
KSW1 111336Z 00015KT M06/M12 A3016 RMK A01 T10601119  RH  063%=      5-min Rain = 0
KSW1 111337Z 01014KT M06/M12 A3016 RMK A01 T10601119  RH  063%=      5-min Rain = 0
KSW1 111338Z 01016G21KT M06/M12 A3016 RMK A01 T10601120  RH  063%=      5-min Rain = 0
KSW1 111339Z 01014KT M06/M12 A3016 RMK A01 T10601119  RH  063%=      5-min Rain = 0
KSW1 111340Z 01014KT M06/M12 A3016 RMK A01 T10601119  RH  063%=      5-min Rain = 0
KSW1 111341Z 01015KT M06/M12 A3016 RMK A01 T10601119  RH  063%=      5-min Rain = 0
KSW1 111342Z 00014KT M06/M12 A3016 RMK A01 T10601120  RH  063%=      5-min Rain = 0
KSW1 111343Z 00015KT M06/M12 A3017 RMK A01 T10601119  RH  063%=      5-min Rain = 0
KSW1 111344Z 01013KT M06/M12 A3017 RMK A01 T10601119  RH  063%=      5-min Rain = 0
KSW1 111345Z 00014KT M06/M12 A3017 RMK A01 T10601119  RH  063%=      5-min Rain = 0
KSW1 111346Z 01012KT M06/M12 A3017 RMK A01 T10601119  RH  063%=      5-min Rain = 0
KSW1 111347Z 00012G17KT M06/M12 A3017 RMK A01 T10591119  RH  063%=      5-min Rain = 0
KSW1 111348Z 01013KT M06/M12 A3017 RMK A01 T10591118  RH  063%=      5-min Rain = 0
KSW1 111349Z 01012KT M06/M12 A3017 RMK A01 T10591119  RH  063%=      5-min Rain = 0
KSW1 111350Z 01014KT M06/M12 A3016 RMK A01 T10591119  RH  062%=      5-min Rain = 0
KSW1 111351Z 01012KT M06/M12 A3017 RMK A01 T10581119  RH  062%=      5-min Rain = 0
KSW1 111352Z 00016KT M06/M12 A3017 RMK A01 T10581119  RH  062%=      5-min Rain = 0
KSW1 111353Z 01019KT M06/M12 A3017 RMK A01 T10581119  RH  062%=      5-min Rain = 0
KSW1 111354Z 01014KT M06/M12 A3017 RMK A01 T10591120  RH  062%=      5-min Rain = 0
KSW1 111355Z 01013KT M06/M12 A3017 RMK A01 T10591119  RH  062%=      5-min Rain = 0
KSW1 111356Z 01015KT M06/M12 A3017 RMK A01 T10591119  RH  062%=      5-min Rain = 0
KSW1 111357Z 00015KT M06/M12 A3017 RMK A01 T10581119  RH  062%=      5-min Rain = 0
KSW1 111358Z 00014KT M06/M12 A3017 RMK A01 T10591119  RH  062%=      5-min Rain = 0
KSW1 111359Z 01012KT M06/M12 A3017 RMK A01 T10581119  RH  062%=      5-min Rain = 0
KSW1 111400Z 01015KT M06/M12 A3017 RMK A01 T10581119  RH  062%=      5-min Rain = 0
KSW1 111401Z 01014G19KT M06/M12 A3017 RMK A01 T10581119  RH  062%=      5-min Rain = 0
KSW1 111402Z 01012KT M06/M12 A3017 RMK A01 T10581119  RH  062%=      5-min Rain = 0
KSW1 111403Z 01014KT M06/M12 A3017 RMK A01 T10581119  RH  062%=      5-min Rain = 0
KSW1 111404Z 00012KT M06/M12 A3017 RMK A01 T10571118  RH  062%=      5-min Rain = 0
KSW1 111405Z 00011KT M06/M12 A3017 RMK A01 T10571118  RH  062%=      5-min Rain = 0
KSW1 111406Z 36011KT M06/M12 A3017 RMK A01 T10561118  RH  062%=      5-min Rain = 0
KSW1 111407Z 00013KT M06/M12 A3017 RMK A01 T10561118  RH  062%=      5-min Rain = 0
KSW1 111408Z 01011KT M06/M12 A3017 RMK A01 T10561118  RH  062%=      5-min Rain = 0
KSW1 111409Z 00009KT M06/M12 A3017 RMK A01 T10561118  RH  062%=      5-min Rain = 0
KSW1 111410Z 01014KT M06/M12 A3017 RMK A01 T10551118  RH  062%=      5-min Rain = 0
KSW1 111411Z 01013KT M06/M12 A3017 RMK A01 T10551118  RH  061%=      5-min Rain = 0
KSW1 111412Z 00015KT M06/M12 A3017 RMK A01 T10551118  RH  061%=      5-min Rain = 0
KSW1 111413Z 01015KT M06/M12 A3017 RMK A01 T10561119  RH  061%=      5-min Rain = 0
KSW1 111414Z 01013KT M06/M12 A3017 RMK A01 T10561119  RH  061%=      5-min Rain = 0
KSW1 111415Z 01012KT M06/M12 A3018 RMK A01 T10561118  RH  061%=      5-min Rain = 0
KSW1 111416Z 01015KT M06/M12 A3018 RMK A01 T10551118  RH  061%=      5-min Rain = 0
KSW1 111417Z 01012KT M06/M12 A3018 RMK A01 T10561118  RH  061%=      5-min Rain = 0
KSW1 111418Z 00012KT M06/M12 A3018 RMK A01 T10551117  RH  061%=      5-min Rain = 0
KSW1 111419Z 00010KT M05/M12 A3017 RMK A01 T10541117  RH  061%=      5-min Rain = 0
KSW1 111420Z 00011KT M05/M12 A3017 RMK A01 T10531116  RH  061%=      5-min Rain = 0
KSW1 111421Z 36012KT M05/M12 A3017 RMK A01 T10531116  RH  061%=      5-min Rain = 0
KSW1 111422Z 36013KT M05/M12 A3017 RMK A01 T10521117  RH  061%=      5-min Rain = 0
KSW1 111423Z 00016KT M05/M12 A3017 RMK A01 T10531117  RH  060%=      5-min Rain = 0
KSW1 111424Z 35015G21KT M05/M12 A3017 RMK A01 T10531118  RH  061%=      5-min Rain = 0
KSW1 111425Z 00014KT M05/M12 A3017 RMK A01 T10541118  RH  061%=      5-min Rain = 0
KSW1 111426Z 00014KT M05/M12 A3017 RMK A01 T10541118  RH  061%=      5-min Rain = 0
KSW1 111427Z 35016KT M05/M12 A3017 RMK A01 T10541118  RH  061%=      5-min Rain = 0
KSW1 111428Z 35014KT M06/M12 A3017 RMK A01 T10551118  RH  061%=      5-min Rain = 0
KSW1 111429Z 36011KT M06/M12 A3017 RMK A01 T10551118  RH  061%=      5-min Rain = 0
KSW1 111430Z 00016KT M06/M12 A3018 RMK A01 T10551118  RH  061%=      5-min Rain = 0
KSW1 111431Z 01015G20KT M06/M12 A3018 RMK A01 T10551118  RH  061%=      5-min Rain = 0
KSW1 111432Z 00016KT M06/M12 A3018 RMK A01 T10551118  RH  061%=      5-min Rain = 0
KSW1 111433Z 00014KT M05/M12 A3018 RMK A01 T10541118  RH  061%=      5-min Rain = 0
KSW1 111434Z 01013G18KT M05/M12 A3018 RMK A01 T10541118  RH  061%=      5-min Rain = 0
KSW1 111435Z 01016KT M05/M12 A3018 RMK A01 T10541118  RH  061%=      5-min Rain = 0
KSW1 111436Z 01012G17KT M05/M12 A3018 RMK A01 T10541118  RH  061%=      5-min Rain = 0
KSW1 111437Z 01013KT M05/M12 A3018 RMK A01 T10541118  RH  061%=      5-min Rain = 0
KSW1 111438Z 00012KT M05/M12 A3018 RMK A01 T10541117  RH  061%=      5-min Rain = 0
KSW1 111439Z 00016KT M05/M12 A3018 RMK A01 T10531117  RH  061%=      5-min Rain = 0
KSW1 111440Z 00016KT M05/M12 A3018 RMK A01 T10531117  RH  061%=      5-min Rain = 0
KSW1 111441Z 36014G19KT M05/M12 A3019 RMK A01 T10531117  RH  061%=      5-min Rain = 0
KSW1 111442Z 00014KT M05/M12 A3019 RMK A01 T10531117  RH  061%=      5-min Rain = 0
KSW1 111443Z 01017KT M05/M12 A3019 RMK A01 T10521117  RH  060%=      5-min Rain = 0
KSW1 111444Z 01015G20KT M05/M12 A3019 RMK A01 T10521117  RH  060%=      5-min Rain = 0
KSW1 111445Z 01015KT M05/M12 A3019 RMK A01 T10521118  RH  060%=      5-min Rain = 0
KSW1 111446Z 00012KT M05/M12 A3019 RMK A01 T10531117  RH  060%=      5-min Rain = 0
KSW1 111447Z 00014KT M05/M12 A3019 RMK A01 T10521117  RH  060%=      5-min Rain = 0
KSW1 111448Z 36015KT M05/M12 A3019 RMK A01 T10521117  RH  060%=      5-min Rain = 0
KSW1 111449Z 00015KT M05/M12 A3019 RMK A01 T10521117  RH  060%=      5-min Rain = 0
KSW1 111450Z 00017KT M05/M12 A3019 RMK A01 T10521117  RH  060%=      5-min Rain = 0
KSW1 111451Z 36013KT M05/M12 A3019 RMK A01 T10521117  RH  060%=      5-min Rain = 0
KSW1 111452Z 35012KT M05/M12 A302 RMK A01 T10521117  RH  060%=      5-min Rain = 0
KSW1 111453Z 35015KT M05/M12 A302 RMK A01 T10521117  RH  060%=      5-min Rain = 0
KSW1 111454Z 35014KT M05/M12 A302 RMK A01 T10511117  RH  060%=      5-min Rain = 0
KSW1 111455Z 35014KT M05/M12 A3019 RMK A01 T10511117  RH  060%=      5-min Rain = 0
KSW1 111456Z 00012KT M05/M12 A3019 RMK A01 T10501117  RH  060%=      5-min Rain = 0
KSW1 111457Z 00015G20KT M05/M12 A302 RMK A01 T10491115  RH  060%=      5-min Rain = 0
KSW1 111458Z 36016KT M05/M12 A302 RMK A01 T10491116  RH  059%=      5-min Rain = 0
KSW1 111459Z 36016KT M05/M12 A302 RMK A01 T10491117  RH  059%=      5-min Rain = 0
KSW1 111500Z 35015G20KT M05/M12 A302 RMK A01 T10491117  RH  059%=      5-min Rain = 0
KSW1 111501Z 00012KT M05/M12 A302 RMK A01 T10501117  RH  059%=      5-min Rain = 0
KSW1 111502Z 00014KT M05/M12 A302 RMK A01 T10491116  RH  059%=      5-min Rain = 0
KSW1 111503Z 00015KT M05/M12 A3021 RMK A01 T10491117  RH  059%=      5-min Rain = 0
KSW1 111504Z 35015KT M05/M12 A3021 RMK A01 T10491117  RH  059%=      5-min Rain = 0
KSW1 111505Z 35013G19KT M05/M12 A3021 RMK A01 T10491117  RH  059%=      5-min Rain = 0
KSW1 111506Z 00015KT M05/M12 A3021 RMK A01 T10491117  RH  059%=      5-min Rain = 0
KSW1 111507Z 36016KT M05/M12 A3021 RMK A01 T10491117  RH  059%=      5-min Rain = 0
KSW1 111508Z 00014KT M05/M12 A3021 RMK A01 T10491117  RH  059%=      5-min Rain = 0
KSW1 111509Z 36013G18KT M05/M12 A3021 RMK A01 T10491116  RH  059%=      5-min Rain = 0
KSW1 111510Z 36014KT M05/M12 A3021 RMK A01 T10481116  RH  059%=      5-min Rain = 0
KSW1 111511Z 36014KT M05/M12 A3021 RMK A01 T10481117  RH  059%=      5-min Rain = 0
KSW1 111512Z 35015KT M05/M12 A3021 RMK A01 T10481116  RH  059%=      5-min Rain = 0
KSW1 111513Z 36015KT M05/M12 A3021 RMK A01 T10481117  RH  059%=      5-min Rain = 0
KSW1 111514Z 35015KT M05/M12 A3021 RMK A01 T10481117  RH  059%=      5-min Rain = 0
KSW1 111515Z 35015KT M05/M12 A3021 RMK A01 T10481117  RH  059%=      5-min Rain = 0
KSW1 111516Z 36010KT M05/M12 A3021 RMK A01 T10481116  RH  059%=      5-min Rain = 0
KSW1 111517Z 36012KT M05/M12 A3021 RMK A01 T10471116  RH  059%=      5-min Rain = 0
KSW1 111518Z 36013KT M05/M12 A3021 RMK A01 T10461116  RH  058%=      5-min Rain = 0
KSW1 111519Z 36012KT M05/M12 A3021 RMK A01 T10461116  RH  058%=      5-min Rain = 0
KSW1 111520Z 00014KT M05/M12 A3021 RMK A01 T10471116  RH  058%=      5-min Rain = 0
KSW1 111521Z 35014KT M05/M12 A3021 RMK A01 T10471116  RH  058%=      5-min Rain = 0
KSW1 111522Z 35012KT M05/M12 A3021 RMK A01 T10471116  RH  058%=      5-min Rain = 0
KSW1 111523Z 35014KT M05/M12 A3021 RMK A01 T10471117  RH  058%=      5-min Rain = 0
KSW1 111524Z 35015KT M05/M12 A3021 RMK A01 T10471117  RH  058%=      5-min Rain = 0
KSW1 111525Z 00012KT M05/M12 A3022 RMK A01 T10471117  RH  058%=      5-min Rain = 0
KSW1 111526Z 01011G17KT M05/M12 A3022 RMK A01 T10471116  RH  058%=      5-min Rain = 0
KSW1 111527Z 36014KT M05/M12 A3022 RMK A01 T10451116  RH  058%=      5-min Rain = 0
KSW1 111528Z 36013G18KT M05/M12 A3022 RMK A01 T10451116  RH  057%=      5-min Rain = 0
KSW1 111529Z 36013KT M05/M12 A3022 RMK A01 T10451116  RH  058%=      5-min Rain = 0
KSW1 111530Z 36013KT M05/M12 A3022 RMK A01 T10461117  RH  058%=      5-min Rain = 0
KSW1 111531Z 36015KT M05/M12 A3022 RMK A01 T10461117  RH  058%=      5-min Rain = 0
KSW1 111532Z 35015KT M05/M12 A3022 RMK A01 T10471117  RH  058%=      5-min Rain = 0
KSW1 111533Z 36016KT M05/M12 A3022 RMK A01 T10471117  RH  058%=      5-min Rain = 0
KSW1 111534Z 35014KT M05/M12 A3022 RMK A01 T10471117  RH  058%=      5-min Rain = 0
KSW1 111535Z 35012KT M05/M12 A3022 RMK A01 T10481117  RH  058%=      5-min Rain = 0
KSW1 111536Z 35013KT M05/M12 A3022 RMK A01 T10471117  RH  058%=      5-min Rain = 0
KSW1 111537Z 35015KT M05/M12 A3022 RMK A01 T10471117  RH  058%=      5-min Rain = 0
KSW1 111538Z 35014KT M05/M12 A3022 RMK A01 T10461116  RH  058%=      5-min Rain = 0
KSW1 111539Z 35015KT M05/M12 A3022 RMK A01 T10461117  RH  058%=      5-min Rain = 0
KSW1 111540Z 35014G19KT M05/M12 A3022 RMK A01 T10461117  RH  058%=      5-min Rain = 0
KSW1 111541Z 35015KT M05/M12 A3022 RMK A01 T10461117  RH  057%=      5-min Rain = 0
KSW1 111542Z 34015KT M05/M12 A3022 RMK A01 T10461117  RH  057%=      5-min Rain = 0
KSW1 111543Z 35016KT M05/M12 A3022 RMK A01 T10461118  RH  057%=      5-min Rain = 0
KSW1 111544Z 35017KT M05/M12 A3022 RMK A01 T10461118  RH  057%=      5-min Rain = 0
KSW1 111545Z 35017KT M05/M12 A3022 RMK A01 T10461118  RH  057%=      5-min Rain = 0
KSW1 111546Z 35014KT M05/M12 A3022 RMK A01 T10461119  RH  057%=      5-min Rain = 0
KSW1 111547Z 35013KT M05/M12 A3022 RMK A01 T10451118  RH  057%=      5-min Rain = 0
KSW1 111548Z 35014G19KT M04/M12 A3022 RMK A01 T10431117  RH  056%=      5-min Rain = 0
KSW1 111549Z 35016KT M04/M12 A3022 RMK A01 T10431118  RH  056%=      5-min Rain = 0
KSW1 111550Z 36014KT M04/M12 A3022 RMK A01 T10441119  RH  056%=      5-min Rain = 0
KSW1 111551Z 35015KT M04/M12 A3022 RMK A01 T10441119  RH  056%=      5-min Rain = 0
KSW1 111552Z 35014KT M04/M12 A3022 RMK A01 T10441119  RH  056%=      5-min Rain = 0
KSW1 111553Z 36012KT M04/M12 A3022 RMK A01 T10431119  RH  056%=      5-min Rain = 0
KSW1 111554Z 01013G18KT M04/M12 A3022 RMK A01 T10421118  RH  055%=      5-min Rain = 0
KSW1 111555Z 00016KT M04/M12 A3022 RMK A01 T10381116  RH  055%=      5-min Rain = 0
KSW1 111556Z 35012G17KT M04/M12 A3022 RMK A01 T10381117  RH  054%=      5-min Rain = 0
KSW1 111557Z 35014KT M04/M12 A3022 RMK A01 T10361116  RH  054%=      5-min Rain = 0
KSW1 111558Z 36014KT M04/M12 A3023 RMK A01 T10351117  RH  053%=      5-min Rain = 0
KSW1 111559Z 36015KT M03/M12 A3023 RMK A01 T10341116  RH  053%=      5-min Rain = 0
KSW1 111600Z 00018KT M03/M12 A3023 RMK A01 T10331117  RH  052%=      5-min Rain = 0
KSW1 111601Z 36016KT M03/M12 A3023 RMK A01 T10331117  RH  052%=      5-min Rain = 0
KSW1 111602Z 00016KT M03/M12 A3023 RMK A01 T10321117  RH  052%=      5-min Rain = 0
KSW1 111603Z 35018KT M03/M12 A3023 RMK A01 T10301117  RH  051%=      5-min Rain = 0
KSW1 111604Z 35016KT M03/M12 A3023 RMK A01 T10331120  RH  051%=      5-min Rain = 0
KSW1 111605Z 35016KT M04/M12 A3023 RMK A01 T10351121  RH  051%=      5-min Rain = 0
KSW1 111606Z 35016KT M04/M12 A3023 RMK A01 T10351120  RH  052%=      5-min Rain = 0
KSW1 111607Z 00015KT M04/M12 A3023 RMK A01 T10351119  RH  052%=      5-min Rain = 0
KSW1 111608Z 00016KT M03/M12 A3023 RMK A01 T10331118  RH  052%=      5-min Rain = 0
KSW1 111609Z 00016KT M03/M12 A3023 RMK A01 T10331119  RH  051%=      5-min Rain = 0
KSW1 111610Z 00015KT M03/M12 A3023 RMK A01 T10331119  RH  051%=      5-min Rain = 0
KSW1 111611Z 00016KT M03/M12 A3023 RMK A01 T10331119  RH  051%=      5-min Rain = 0
KSW1 111612Z 36016KT M03/M12 A3023 RMK A01 T10331119  RH  051%=      5-min Rain = 0
KSW1 111613Z 01015KT M03/M12 A3023 RMK A01 T10321118  RH  052%=      5-min Rain = 0
KSW1 111614Z 01015KT M03/M12 A3023 RMK A01 T10291115  RH  051%=      5-min Rain = 0
KSW1 111615Z 01015KT M03/M12 A3023 RMK A01 T10271115  RH  051%=      5-min Rain = 0
KSW1 111616Z 01014G19KT M03/M12 A3023 RMK A01 T10261116  RH  050%=      5-min Rain = 0
KSW1 111617Z 02013KT M03/M12 A3023 RMK A01 T10281118  RH  050%=      5-min Rain = 0
KSW1 111618Z 01016KT M03/M12 A3023 RMK A01 T10281118  RH  050%=      5-min Rain = 0
KSW1 111619Z 36014KT M03/M12 A3023 RMK A01 T10271116  RH  050%=      5-min Rain = 0
KSW1 111620Z 35012KT M03/M12 A3023 RMK A01 T10261116  RH  050%=      5-min Rain = 0
KSW1 111621Z 36015G20KT M03/M12 A3023 RMK A01 T10251116  RH  050%=      5-min Rain = 0
KSW1 111622Z 00015KT M03/M12 A3023 RMK A01 T10251118  RH  049%=      5-min Rain = 0
KSW1 111623Z 36013G18KT M03/M12 A3023 RMK A01 T10291120  RH  049%=      5-min Rain = 0
KSW1 111624Z 36013G18KT M03/M12 A3023 RMK A01 T10291119  RH  050%=      5-min Rain = 0
KSW1 111625Z 00013G18KT M03/M12 A3023 RMK A01 T10271117  RH  050%=      5-min Rain = 0
KSW1 111626Z 36014KT M03/M12 A3023 RMK A01 T10251116  RH  050%=      5-min Rain = 0
KSW1 111627Z 00014KT M03/M12 A3023 RMK A01 T10251116  RH  049%=      5-min Rain = 0
KSW1 111628Z 35017KT M02/M12 A3023 RMK A01 T10241117  RH  049%=      5-min Rain = 0
KSW1 111629Z 00015KT M02/M12 A3023 RMK A01 T10241116  RH  049%=      5-min Rain = 0
KSW1 111630Z 00014KT M02/M12 A3023 RMK A01 T10231116  RH  049%=      5-min Rain = 0
KSW1 111631Z 35015KT M02/M12 A3023 RMK A01 T10241117  RH  049%=      5-min Rain = 0
KSW1 111632Z 36013KT M03/M12 A3023 RMK A01 T10261118  RH  049%=      5-min Rain = 0
KSW1 111633Z 01013KT M03/M12 A3024 RMK A01 T10271118  RH  050%=      5-min Rain = 0
KSW1 111634Z 02013KT M03/M12 A3024 RMK A01 T10271117  RH  050%=      5-min Rain = 0
KSW1 111635Z 01014KT M03/M12 A3024 RMK A01 T10271118  RH  049%=      5-min Rain = 0
KSW1 111636Z 01012KT M03/M12 A3024 RMK A01 T10281119  RH  050%=      5-min Rain = 0
KSW1 111637Z 00010KT M03/M12 A3024 RMK A01 T10281118  RH  050%=      5-min Rain = 0
KSW1 111638Z 34011KT M03/M12 A3023 RMK A01 T10261116  RH  050%=      5-min Rain = 0
KSW1 111639Z 34012KT M03/M12 A3024 RMK A01 T10251116  RH  049%=      5-min Rain = 0
KSW1 111640Z 36011KT M03/M12 A3024 RMK A01 T10251117  RH  049%=      5-min Rain = 0
KSW1 111641Z 36013KT M03/M12 A3024 RMK A01 T10251116  RH  049%=      5-min Rain = 0
KSW1 111642Z 00015KT M03/M12 A3024 RMK A01 T10251118  RH  049%=      5-min Rain = 0
KSW1 111643Z 00016KT M03/M12 A3024 RMK A01 T10261118  RH  049%=      5-min Rain = 0
KSW1 111644Z 00014G19KT M03/M12 A3024 RMK A01 T10261118  RH  049%=      5-min Rain = 0
KSW1 111645Z 00013KT M03/M12 A3024 RMK A01 T10271119  RH  049%=      5-min Rain = 0
KSW1 111646Z 00012KT M03/M12 A3024 RMK A01 T10281119  RH  050%=      5-min Rain = 0
KSW1 111647Z 35012KT M03/M12 A3024 RMK A01 T10271117  RH  050%=      5-min Rain = 0
KSW1 111648Z 35014G19KT M03/M12 A3024 RMK A01 T10251117  RH  049%=      5-min Rain = 0
KSW1 111649Z 35016KT M03/M12 A3024 RMK A01 T10261119  RH  049%=      5-min Rain = 0
KSW1 111650Z 35014KT M03/M12 A3024 RMK A01 T10271119  RH  049%=      5-min Rain = 0
KSW1 111651Z 36017KT M03/M12 A3024 RMK A01 T10271119  RH  049%=      5-min Rain = 0
KSW1 111652Z 35015KT M03/M12 A3024 RMK A01 T10271119  RH  049%=      5-min Rain = 0
KSW1 111653Z 35017KT M03/M12 A3024 RMK A01 T10261119  RH  049%=      5-min Rain = 0
KSW1 111654Z 35014KT M03/M12 A3024 RMK A01 T10281120  RH  049%=      5-min Rain = 0
KSW1 111655Z 35011KT M03/M12 A3024 RMK A01 T10271119  RH  049%=      5-min Rain = 0
KSW1 111656Z 35013G18KT M03/M12 A3024 RMK A01 T10261118  RH  049%=      5-min Rain = 0
KSW1 111657Z 35010KT M02/M12 A3024 RMK A01 T10241118  RH  049%=      5-min Rain = 0
KSW1 111658Z 02012KT M02/M12 A3024 RMK A01 T10231117  RH  048%=      5-min Rain = 0
KSW1 111659Z 01009KT M02/M12 A3024 RMK A01 T10211117  RH  048%=      5-min Rain = 0
KSW1 111700Z 35010KT M02/M12 A3024 RMK A01 T10191116  RH  047%=      5-min Rain = 0
KSW1 111701Z 35015KT M02/M12 A3024 RMK A01 T10181116  RH  047%=      5-min Rain = 0
KSW1 111702Z 35016KT M02/M12 A3024 RMK A01 T10181118  RH  046%=      5-min Rain = 0
KSW1 111703Z 35012KT M02/M12 A3024 RMK A01 T10241123  RH  047%=      5-min Rain = 0
KSW1 111704Z 35012KT M03/M12 A3024 RMK A01 T10271123  RH  048%=      5-min Rain = 0
KSW1 111705Z 00015KT M03/M12 A3025 RMK A01 T10251119  RH  048%=      5-min Rain = 0
KSW1 111706Z 36012KT M02/M12 A3025 RMK A01 T10221119  RH  048%=      5-min Rain = 0
KSW1 111707Z 01011KT M02/M12 A3025 RMK A01 T10221119  RH  047%=      5-min Rain = 0
KSW1 111708Z 01012G17KT M02/M12 A3025 RMK A01 T10221120  RH  047%=      5-min Rain = 0
KSW1 111709Z 01012KT M02/M12 A3025 RMK A01 T10241122  RH  047%=      5-min Rain = 0
KSW1 111710Z 02010KT M03/M12 A3025 RMK A01 T10261122  RH  047%=      5-min Rain = 0
KSW1 111711Z 01009G14KT M03/M12 A3025 RMK A01 T10251121  RH  048%=      5-min Rain = 0
KSW1 111712Z 34013KT M02/M12 A3025 RMK A01 T10241120  RH  048%=      5-min Rain = 0
KSW1 111713Z 00010KT M02/M12 A3025 RMK A01 T10231118  RH  048%=      5-min Rain = 0
KSW1 111714Z 01008KT M02/M12 A3024 RMK A01 T10181115  RH  047%=      5-min Rain = 0
KSW1 111715Z 36007KT M01/M11 A3024 RMK A01 T10131114  RH  046%=      5-min Rain = 0
KSW1 111716Z 35011KT M01/M12 A3024 RMK A01 T10121116  RH  045%=      5-min Rain = 0
KSW1 111717Z 36009KT M02/M12 A3024 RMK A01 T10161120  RH  045%=      5-min Rain = 0
KSW1 111718Z 36012KT M02/M12 A3024 RMK A01 T10171119  RH  046%=      5-min Rain = 0
KSW1 111719Z 35013KT M02/M12 A3025 RMK A01 T10181120  RH  046%=      5-min Rain = 0
KSW1 111720Z 36009KT M02/M12 A3025 RMK A01 T10221122  RH  046%=      5-min Rain = 0
KSW1 111721Z 36010G15KT M02/M12 A3025 RMK A01 T10211118  RH  047%=      5-min Rain = 0
KSW1 111722Z 00011KT M02/M12 A3025 RMK A01 T10181117  RH  047%=      5-min Rain = 0
KSW1 111723Z 01010KT M02/M12 A3025 RMK A01 T10181119  RH  046%=      5-min Rain = 0
KSW1 111724Z 00008KT M02/M12 A3025 RMK A01 T10191120  RH  046%=      5-min Rain = 0
KSW1 111725Z 01012KT M02/M12 A3025 RMK A01 T10201121  RH  046%=      5-min Rain = 0
KSW1 111726Z 36011KT M02/M12 A3025 RMK A01 T10191119  RH  046%=      5-min Rain = 0
KSW1 111727Z 00010G15KT M02/M12 A3025 RMK A01 T10181119  RH  046%=      5-min Rain = 0
KSW1 111728Z 34013KT M02/M12 A3025 RMK A01 T10191120  RH  046%=      5-min Rain = 0
KSW1 111729Z 35012KT M02/M12 A3025 RMK A01 T10201119  RH  046%=      5-min Rain = 0
KSW1 111730Z 35011KT M02/M12 A3025 RMK A01 T10191120  RH  046%=      5-min Rain = 0
KSW1 111731Z 35012KT M02/M12 A3025 RMK A01 T10181118  RH  046%=      5-min Rain = 0
KSW1 111732Z 34009KT M02/M12 A3025 RMK A01 T10181119  RH  046%=      5-min Rain = 0
KSW1 111733Z 36009G14KT M02/M12 A3024 RMK A01 T10181119  RH  046%=      5-min Rain = 0
KSW1 111734Z 35013KT M02/M12 A3024 RMK A01 T10181119  RH  046%=      5-min Rain = 0
KSW1 111735Z 35011KT M02/M12 A3024 RMK A01 T10181119  RH  046%=      5-min Rain = 0
KSW1 111736Z 35009KT M02/M12 A3024 RMK A01 T10171119  RH  046%=      5-min Rain = 0
KSW1 111737Z 00010KT M02/M12 A3024 RMK A01 T10161118  RH  046%=      5-min Rain = 0
KSW1 111738Z 00012KT M01/M12 A3025 RMK A01 T10131116  RH  046%=      5-min Rain = 0
KSW1 111739Z 35012KT M01/M12 A3025 RMK A01 T10121116  RH  045%=      5-min Rain = 0
KSW1 111740Z 36013KT M01/M12 A3025 RMK A01 T10121117  RH  045%=      5-min Rain = 0
KSW1 111741Z 36011KT M01/M12 A3025 RMK A01 T10141119  RH  045%=      5-min Rain = 0
KSW1 111742Z 35009KT M02/M12 A3025 RMK A01 T10161120  RH  045%=      5-min Rain = 0
KSW1 111743Z 35011KT M02/M12 A3025 RMK A01 T10151118  RH  045%=      5-min Rain = 0
KSW1 111744Z 34014KT M01/M12 A3025 RMK A01 T10131117  RH  045%=      5-min Rain = 0
KSW1 111745Z 36014KT M01/M12 A3025 RMK A01 T10121117  RH  045%=      5-min Rain = 0
KSW1 111746Z 36011KT M01/M12 A3024 RMK A01 T10121118  RH  044%=      5-min Rain = 0
KSW1 111747Z 00012KT M01/M12 A3025 RMK A01 T10091116  RH  044%=      5-min Rain = 0
KSW1 111748Z 36009KT M01/M12 A3025 RMK A01 T10111119  RH  044%=      5-min Rain = 0
KSW1 111749Z 01009KT M01/M12 A3025 RMK A01 T10121119  RH  044%=      5-min Rain = 0
KSW1 111750Z 01005KT M01/M12 A3024 RMK A01 T10131119  RH  044%=      5-min Rain = 0
KSW1 111751Z 35007KT M01/M12 A3024 RMK A01 T10101115  RH  045%=      5-min Rain = 0
KSW1 111752Z 34012G17KT M01/M12 A3024 RMK A01 T10081116  RH  044%=      5-min Rain = 0
KSW1 111753Z 35013KT M01/M12 A3024 RMK A01 T10081117  RH  044%=      5-min Rain = 0
KSW1 111754Z 35013KT M01/M12 A3024 RMK A01 T10081119  RH  043%=      5-min Rain = 0
KSW1 111755Z 35011KT M01/M12 A3025 RMK A01 T10101120  RH  043%=      5-min Rain = 0
KSW1 111756Z 35011KT M01/M12 A3025 RMK A01 T10111120  RH  044%=      5-min Rain = 0
KSW1 111757Z 01009KT M01/M12 A3024 RMK A01 T10121119  RH  044%=      5-min Rain = 0
KSW1 111758Z 01015KT M01/M12 A3024 RMK A01 T10111118  RH  044%=      5-min Rain = 0
KSW1 111759Z 01013KT M01/M12 A3024 RMK A01 T10111119  RH  044%=      5-min Rain = 0
KSW1 111800Z 01015KT M01/M12 A3024 RMK A01 T10101118  RH  044%=      5-min Rain = 0
KSW1 111801Z 00013KT M01/M12 A3024 RMK A01 T10091118  RH  044%=      5-min Rain = 0
KSW1 111802Z 00012KT M01/M12 A3024 RMK A01 T10071117  RH  043%=      5-min Rain = 0
KSW1 111803Z 35010KT M01/M12 A3024 RMK A01 T10061117  RH  043%=      5-min Rain = 0
KSW1 111804Z 00008KT M01/M12 A3024 RMK A01 T10061117  RH  043%=      5-min Rain = 0
KSW1 111805Z 00007KT M01/M12 A3024 RMK A01 T10051116  RH  043%=      5-min Rain = 0
KSW1 111806Z 01009KT M00/M12 A3024 RMK A01 T10041116  RH  042%=      5-min Rain = 0
KSW1 111807Z 35011KT M00/M12 A3024 RMK A01 T10041118  RH  042%=      5-min Rain = 0
KSW1 111808Z 34011KT M01/M12 A3024 RMK A01 T10061118  RH  042%=      5-min Rain = 0
KSW1 111809Z 33012KT M01/M12 A3023 RMK A01 T10051117  RH  042%=      5-min Rain = 0
KSW1 111810Z 34011KT M01/M12 A3024 RMK A01 T10061118  RH  042%=      5-min Rain = 0
KSW1 111811Z 00011KT M01/M12 A3024 RMK A01 T10081119  RH  043%=      5-min Rain = 0
KSW1 111812Z 36011KT M01/M12 A3024 RMK A01 T10081119  RH  043%=      5-min Rain = 0
KSW1 111813Z 36011KT M01/M12 A3024 RMK A01 T10081117  RH  043%=      5-min Rain = 0
KSW1 111814Z 35012KT M01/M12 A3024 RMK A01 T10061117  RH  043%=      5-min Rain = 0
KSW1 111815Z 36012KT M01/M12 A3024 RMK A01 T10051116  RH  043%=      5-min Rain = 0
KSW1 111816Z 01011KT M00/M12 A3023 RMK A01 T10041117  RH  042%=      5-min Rain = 0
KSW1 111817Z 01013KT M01/M12 A3023 RMK A01 T10051118  RH  042%=      5-min Rain = 0
KSW1 111818Z 01009KT M01/M12 A3023 RMK A01 T10051118  RH  042%=      5-min Rain = 0
KSW1 111819Z 00009KT M01/M12 A3023 RMK A01 T10061118  RH  042%=      5-min Rain = 0
KSW1 111820Z 35007G15KT M01/M12 A3023 RMK A01 T10071119  RH  042%=      5-min Rain = 0
KSW1 111821Z 34013KT M01/M12 A3023 RMK A01 T10061117  RH  043%=      5-min Rain = 0
KSW1 111822Z 34012KT M00/M12 A3023 RMK A01 T10041118  RH  042%=      5-min Rain = 0
KSW1 111823Z 33009KT M01/M12 A3023 RMK A01 T10061119  RH  042%=      5-min Rain = 0
KSW1 111824Z 35010KT M01/M12 A3023 RMK A01 T10061117  RH  043%=      5-min Rain = 0
KSW1 111825Z 02009KT M00/M12 A3023 RMK A01 T10041117  RH  042%=      5-min Rain = 0
KSW1 111826Z 02010KT M00/M12 A3023 RMK A01 T10041118  RH  042%=      5-min Rain = 0
KSW1 111827Z 03010KT M00/M12 A3022 RMK A01 T10031117  RH  042%=      5-min Rain = 0
KSW1 111828Z 02010KT 00/12 A3022 RMK A01 T00000-115  RH  042%=      5-min Rain = 0
KSW1 111829Z 00008KT 00/M12 A3022 RMK A01 T00021115  RH  041%=      5-min Rain = 0
KSW1 111830Z 35008KT 01/M11 A3022 RMK A01 T00051114  RH  041%=      5-min Rain = 0
KSW1 111831Z 35011KT 01/M11 A3022 RMK A01 T00081114  RH  040%=      5-min Rain = 0
KSW1 111832Z 36010KT 01/M12 A3022 RMK A01 T00051118  RH  039%=      5-min Rain = 0
KSW1 111833Z 36010KT 00/M12 A3022 RMK A01 T00011119  RH  040%=      5-min Rain = 0
KSW1 111834Z 35009KT 00/12 A3022 RMK A01 T00000-118  RH  041%=      5-min Rain = 0
KSW1 111835Z 35007KT 00/12 A3022 RMK A01 T00000-117  RH  041%=      5-min Rain = 0
KSW1 111836Z 33012KT 01/M11 A3022 RMK A01 T00051113  RH  041%=      5-min Rain = 0
KSW1 111837Z 33010G15KT 01/M12 A3022 RMK A01 T00061117  RH  039%=      5-min Rain = 0
KSW1 111838Z 35009KT 01/M12 A3022 RMK A01 T00071116  RH  039%=      5-min Rain = 0
KSW1 111839Z 35012KT 01/M12 A3022 RMK A01 T00091115  RH  039%=      5-min Rain = 0
KSW1 111840Z 36010KT 01/M12 A3022 RMK A01 T00061119  RH  039%=      5-min Rain = 0
KSW1 111841Z 36010KT 00/M12 A3022 RMK A01 T00041118  RH  039%=      5-min Rain = 0
KSW1 111842Z 35009KT 01/M12 A3022 RMK A01 T00051117  RH  040%=      5-min Rain = 0
KSW1 111843Z 32011KT 01/M12 A3022 RMK A01 T00051117  RH  039%=      5-min Rain = 0
KSW1 111844Z 35011KT 01/M12 A3022 RMK A01 T00051117  RH  039%=      5-min Rain = 0
KSW1 111845Z 00013KT 01/M12 A3022 RMK A01 T00061116  RH  039%=      5-min Rain = 0
KSW1 111846Z 35009KT 01/M12 A3022 RMK A01 T00081116  RH  039%=      5-min Rain = 0
KSW1 111847Z 00010KT 01/M12 A3022 RMK A01 T00101116  RH  039%=      5-min Rain = 0
KSW1 111848Z 01010G15KT 01/M12 A3022 RMK A01 T00101117  RH  038%=      5-min Rain = 0
KSW1 111849Z 01012KT 01/M12 A3022 RMK A01 T00081118  RH  038%=      5-min Rain = 0
KSW1 111850Z 01011KT 01/M12 A3022 RMK A01 T00071118  RH  039%=      5-min Rain = 0
KSW1 111851Z 00012KT 01/M12 A3022 RMK A01 T00091116  RH  039%=      5-min Rain = 0
KSW1 111852Z 36011KT 01/M12 A3022 RMK A01 T00091117  RH  038%=      5-min Rain = 0
KSW1 111853Z 00011KT 01/M12 A3021 RMK A01 T00081117  RH  039%=      5-min Rain = 0
KSW1 111854Z 36013KT 01/M12 A3021 RMK A01 T00121115  RH  038%=      5-min Rain = 0
KSW1 111855Z 35009KT 01/M12 A3021 RMK A01 T00111118  RH  038%=      5-min Rain = 0
KSW1 111856Z 34008KT 01/M12 A3021 RMK A01 T00101117  RH  038%=      5-min Rain = 0
KSW1 111857Z 35010KT 01/M12 A3021 RMK A01 T00121117  RH  038%=      5-min Rain = 0
KSW1 111858Z 34010KT 01/M12 A3021 RMK A01 T00111117  RH  038%=      5-min Rain = 0
KSW1 111859Z 34011KT 01/M12 A3021 RMK A01 T00111117  RH  038%=      5-min Rain = 0
KSW1 111900Z 33012KT 01/M12 A3021 RMK A01 T00121116  RH  038%=      5-min Rain = 0
KSW1 111901Z 34013KT 01/M12 A3021 RMK A01 T00111118  RH  038%=      5-min Rain = 0
KSW1 111902Z 34009KT 01/M12 A3021 RMK A01 T00111117  RH  038%=      5-min Rain = 0
KSW1 111903Z 33011KT 01/M12 A3021 RMK A01 T00131116  RH  037%=      5-min Rain = 0
KSW1 111904Z 34012KT 01/M12 A3021 RMK A01 T00141116  RH  037%=      5-min Rain = 0
KSW1 111905Z 34012G17KT 01/M12 A3021 RMK A01 T00141118  RH  037%=      5-min Rain = 0
KSW1 111906Z 34010KT 01/M12 A3021 RMK A01 T00121119  RH  037%=      5-min Rain = 0
KSW1 111907Z 34010KT 01/M12 A3021 RMK A01 T00111119  RH  037%=      5-min Rain = 0
KSW1 111908Z 34012KT 01/M12 A3021 RMK A01 T00101120  RH  037%=      5-min Rain = 0
KSW1 111909Z 33011KT 01/M12 A3021 RMK A01 T00101118  RH  038%=      5-min Rain = 0
KSW1 111910Z 35011KT 01/M12 A3021 RMK A01 T00131117  RH  037%=      5-min Rain = 0
KSW1 111911Z 34012KT 01/M12 A3021 RMK A01 T00141118  RH  037%=      5-min Rain = 0
KSW1 111912Z 33010KT 01/M12 A3021 RMK A01 T00131119  RH  037%=      5-min Rain = 0
KSW1 111913Z 34009KT 01/M12 A3021 RMK A01 T00081123  RH  037%=      5-min Rain = 0
KSW1 111914Z 34012KT 01/M12 A3021 RMK A01 T00071121  RH  038%=      5-min Rain = 0
KSW1 111915Z 34010KT 01/M12 A3021 RMK A01 T00081119  RH  038%=      5-min Rain = 0
KSW1 111916Z 35011KT 01/M12 A3021 RMK A01 T00131115  RH  038%=      5-min Rain = 0
KSW1 111917Z 35014KT 02/M12 A3021 RMK A01 T00181116  RH  036%=      5-min Rain = 0
KSW1 111918Z 34013KT 02/M12 A3021 RMK A01 T00171119  RH  036%=      5-min Rain = 0
KSW1 111919Z 35014KT 02/M12 A3021 RMK A01 T00151120  RH  036%=      5-min Rain = 0
KSW1 111920Z 35010KT 01/M12 A3021 RMK A01 T00121122  RH  036%=      5-min Rain = 0
KSW1 111921Z 36008KT 01/M12 A3021 RMK A01 T00101121  RH  037%=      5-min Rain = 0
KSW1 111922Z 02007KT 01/M12 A3021 RMK A01 T00101120  RH  037%=      5-min Rain = 0
KSW1 111923Z 35008KT 01/M12 A3021 RMK A01 T00121117  RH  038%=      5-min Rain = 0
KSW1 111924Z 34008G14KT 02/M12 A302 RMK A01 T00171116  RH  037%=      5-min Rain = 0
KSW1 111925Z 33010KT 02/M12 A302 RMK A01 T00181117  RH  036%=      5-min Rain = 0
KSW1 111926Z 34012KT 02/M12 A302 RMK A01 T00181119  RH  036%=      5-min Rain = 0
KSW1 111927Z 35011KT 02/M12 A302 RMK A01 T00171119  RH  036%=      5-min Rain = 0
KSW1 111928Z 34011KT 02/M12 A302 RMK A01 T00171119  RH  036%=      5-min Rain = 0
KSW1 111929Z 35009KT 02/M12 A302 RMK A01 T00161120  RH  036%=      5-min Rain = 0
KSW1 111930Z 00009KT 01/M12 A302 RMK A01 T00131122  RH  036%=      5-min Rain = 0
KSW1 111931Z 01008KT 01/M12 A302 RMK A01 T00131119  RH  037%=      5-min Rain = 0
KSW1 111932Z 35010KT 02/M12 A302 RMK A01 T00181116  RH  036%=      5-min Rain = 0
KSW1 111933Z 35009KT 02/M12 A302 RMK A01 T00171118  RH  036%=      5-min Rain = 0
KSW1 111934Z 36010KT 02/M12 A302 RMK A01 T00181118  RH  036%=      5-min Rain = 0
KSW1 111935Z 36010KT 02/M12 A302 RMK A01 T00181119  RH  036%=      5-min Rain = 0
KSW1 111936Z 36011KT 02/M12 A302 RMK A01 T00151120  RH  036%=      5-min Rain = 0
KSW1 111937Z 35011KT 02/M12 A302 RMK A01 T00161119  RH  036%=      5-min Rain = 0
KSW1 111938Z 35012KT 02/M12 A302 RMK A01 T00181118  RH  036%=      5-min Rain = 0
KSW1 111939Z 35009KT 02/M12 A302 RMK A01 T00171119  RH  036%=      5-min Rain = 0
KSW1 111940Z 34013KT 02/M12 A302 RMK A01 T00171119  RH  036%=      5-min Rain = 0
KSW1 111941Z 34012KT 02/M12 A302 RMK A01 T00161120  RH  036%=      5-min Rain = 0
KSW1 111942Z 34011KT 02/M12 A3019 RMK A01 T00151121  RH  036%=      5-min Rain = 0
KSW1 111943Z 34010KT 01/M12 A3019 RMK A01 T00141120  RH  036%=      5-min Rain = 0
KSW1 111944Z 33014KT 01/M12 A3019 RMK A01 T00141120  RH  036%=      5-min Rain = 0
KSW1 111945Z 33010KT 01/M12 A3019 RMK A01 T00121122  RH  036%=      5-min Rain = 0
KSW1 111946Z 31012KT 01/M12 A3019 RMK A01 T00091122  RH  037%=      5-min Rain = 0
KSW1 111947Z 32011KT 01/M12 A3019 RMK A01 T00091121  RH  037%=      5-min Rain = 0
KSW1 111948Z 32010KT 01/M12 A3019 RMK A01 T00091121  RH  037%=      5-min Rain = 0
KSW1 111949Z 33007KT 01/M12 A3019 RMK A01 T00091121  RH  037%=      5-min Rain = 0
KSW1 111950Z 33010KT 01/M12 A3019 RMK A01 T00101120  RH  037%=      5-min Rain = 0
KSW1 111951Z 33006KT 01/M12 A302 RMK A01 T00081122  RH  037%=      5-min Rain = 0
KSW1 111952Z 33006KT 01/M12 A3019 RMK A01 T00081121  RH  038%=      5-min Rain = 0
KSW1 111953Z 33007KT 01/M12 A3019 RMK A01 T00111118  RH  037%=      5-min Rain = 0
KSW1 111954Z 33007KT 01/M12 A3019 RMK A01 T00131119  RH  037%=      5-min Rain = 0
KSW1 111955Z 33010KT 01/M12 A3019 RMK A01 T00141119  RH  036%=      5-min Rain = 0
KSW1 111956Z 33009KT 01/M12 A3019 RMK A01 T00131120  RH  036%=      5-min Rain = 0
KSW1 111957Z 33010KT 01/M12 A3019 RMK A01 T00121120  RH  037%=      5-min Rain = 0
KSW1 111958Z 35008KT 01/M12 A3019 RMK A01 T00121120  RH  037%=      5-min Rain = 0
KSW1 111959Z 00009KT 01/M12 A3019 RMK A01 T00141118  RH  037%=      5-min Rain = 0
KSW1 112000Z 36008KT 02/M12 A3019 RMK A01 T00151119  RH  036%=      5-min Rain = 0
KSW1 112001Z 34007KT 02/M12 A3019 RMK A01 T00171118  RH  036%=      5-min Rain = 0
KSW1 112002Z 33011KT 02/M12 A3019 RMK A01 T00191118  RH  036%=      5-min Rain = 0
KSW1 112003Z 33012KT 02/M12 A3019 RMK A01 T00171120  RH  035%=      5-min Rain = 0
KSW1 112004Z 34011KT 01/M12 A3019 RMK A01 T00131122  RH  036%=      5-min Rain = 0
KSW1 112005Z 34010KT 01/M12 A3019 RMK A01 T00111121  RH  036%=      5-min Rain = 0
KSW1 112006Z 36008KT 01/M12 A3019 RMK A01 T00121120  RH  037%=      5-min Rain = 0
KSW1 112007Z 00006KT 01/M12 A3019 RMK A01 T00131120  RH  036%=      5-min Rain = 0
KSW1 112008Z 00007KT 01/M12 A3019 RMK A01 T00121120  RH  037%=      5-min Rain = 0
KSW1 112009Z 36009KT 01/M12 A3019 RMK A01 T00121120  RH  037%=      5-min Rain = 0
KSW1 112010Z 00011KT 01/M12 A3019 RMK A01 T00141118  RH  037%=      5-min Rain = 0
KSW1 112011Z 35011KT 02/M12 A3019 RMK A01 T00151119  RH  036%=      5-min Rain = 0
KSW1 112012Z 36009KT 01/M12 A3019 RMK A01 T00131120  RH  036%=      5-min Rain = 0
KSW1 112013Z 35010KT 01/M12 A3019 RMK A01 T00141119  RH  037%=      5-min Rain = 0
KSW1 112014Z 35009KT 02/M12 A3019 RMK A01 T00151118  RH  036%=      5-min Rain = 0
KSW1 112015Z 35009KT 02/M12 A3019 RMK A01 T00161117  RH  036%=      5-min Rain = 0
KSW1 112016Z 34010KT 02/M12 A3018 RMK A01 T00171118  RH  036%=      5-min Rain = 0
KSW1 112017Z 00009KT 02/M12 A3019 RMK A01 T00161119  RH  036%=      5-min Rain = 0
KSW1 112018Z 36011KT 02/M12 A3018 RMK A01 T00171118  RH  036%=      5-min Rain = 0
KSW1 112019Z 34010KT 02/M12 A3018 RMK A01 T00201116  RH  036%=      5-min Rain = 0
KSW1 112020Z 34008KT 02/M12 A3018 RMK A01 T00211117  RH  035%=      5-min Rain = 0
KSW1 112021Z 35009KT 02/M12 A3018 RMK A01 T00201118  RH  035%=      5-min Rain = 0
KSW1 112022Z 01009KT 02/M12 A3018 RMK A01 T00191119  RH  035%=      5-min Rain = 0
KSW1 112023Z 01011KT 02/M12 A3018 RMK A01 T00201117  RH  035%=      5-min Rain = 0
KSW1 112024Z 00011KT 02/M12 A3018 RMK A01 T00191119  RH  035%=      5-min Rain = 0
KSW1 112025Z 01008KT 02/M12 A3018 RMK A01 T00171120  RH  035%=      5-min Rain = 0
KSW1 112026Z 01006KT 02/M12 A3018 RMK A01 T00151121  RH  036%=      5-min Rain = 0
KSW1 112027Z 35009KT 02/M12 A3018 RMK A01 T00161118  RH  036%=      5-min Rain = 0
KSW1 112028Z 35008KT 02/M12 A3018 RMK A01 T00181118  RH  036%=      5-min Rain = 0
KSW1 112029Z 34007KT 02/M12 A3018 RMK A01 T00181118  RH  036%=      5-min Rain = 0
KSW1 112030Z 36008KT 02/M12 A3018 RMK A01 T00181118  RH  036%=      5-min Rain = 0
KSW1 112031Z 36006KT 02/M12 A3018 RMK A01 T00191117  RH  036%=      5-min Rain = 0
KSW1 112032Z 36009KT 02/M12 A3018 RMK A01 T00221115  RH  036%=      5-min Rain = 0
KSW1 112033Z 01008KT 02/M12 A3018 RMK A01 T00231116  RH  035%=      5-min Rain = 0
KSW1 112034Z 35005KT 02/M12 A3018 RMK A01 T00231117  RH  035%=      5-min Rain = 0
KSW1 112035Z 34007KT 02/M12 A3018 RMK A01 T00241116  RH  035%=      5-min Rain = 0
KSW1 112036Z 35007KT 03/M12 A3018 RMK A01 T00271115  RH  035%=      5-min Rain = 0
KSW1 112037Z 33008KT 03/M11 A3018 RMK A01 T00291114  RH  034%=      5-min Rain = 0
KSW1 112038Z 33008KT 03/M11 A3018 RMK A01 T00301114  RH  034%=      5-min Rain = 0
KSW1 112039Z 35006KT 03/M12 A3018 RMK A01 T00301115  RH  034%=      5-min Rain = 0
KSW1 112040Z 01008KT 03/M12 A3018 RMK A01 T00281116  RH  034%=      5-min Rain = 0
KSW1 112041Z 36009KT 03/M12 A3017 RMK A01 T00271116  RH  034%=      5-min Rain = 0
KSW1 112042Z 35011KT 03/M12 A3017 RMK A01 T00271115  RH  034%=      5-min Rain = 0
KSW1 112043Z 33011KT 03/M12 A3017 RMK A01 T00271115  RH  034%=      5-min Rain = 0
KSW1 112044Z 35012KT 03/M12 A3017 RMK A01 T00281115  RH  034%=      5-min Rain = 0
KSW1 112045Z 35012KT 03/M12 A3017 RMK A01 T00271115  RH  034%=      5-min Rain = 0
KSW1 112046Z 34011KT 03/M12 A3018 RMK A01 T00271115  RH  034%=      5-min Rain = 0
KSW1 112047Z 34010KT 03/M12 A3018 RMK A01 T00271115  RH  034%=      5-min Rain = 0
KSW1 112048Z 33008KT 03/M12 A3018 RMK A01 T00261116  RH  034%=      5-min Rain = 0
KSW1 112049Z 33008KT 02/M12 A3017 RMK A01 T00241117  RH  034%=      5-min Rain = 0
KSW1 112050Z 34008KT 02/M12 A3017 RMK A01 T00221117  RH  035%=      5-min Rain = 0
KSW1 112051Z 01010KT 02/M11 A3017 RMK A01 T00241114  RH  035%=      5-min Rain = 0
KSW1 112052Z 00010KT 03/M11 A3017 RMK A01 T00281113  RH  035%=      5-min Rain = 0
KSW1 112053Z 01010KT 03/M12 A3017 RMK A01 T00291115  RH  034%=      5-min Rain = 0
KSW1 112054Z 02008KT 03/M12 A3018 RMK A01 T00271116  RH  034%=      5-min Rain = 0
KSW1 112055Z 02006KT 03/M12 A3018 RMK A01 T00271116  RH  034%=      5-min Rain = 0
KSW1 112056Z 35009KT 03/M12 A3018 RMK A01 T00271115  RH  034%=      5-min Rain = 0
KSW1 112057Z 02008KT 03/M11 A3018 RMK A01 T00281114  RH  034%=      5-min Rain = 0
KSW1 112058Z 36011KT 03/M11 A3017 RMK A01 T00301114  RH  034%=      5-min Rain = 0
KSW1 112059Z 00010KT 03/M11 A3018 RMK A01 T00301114  RH  034%=      5-min Rain = 0
KSW1 112100Z 36009KT 03/M11 A3018 RMK A01 T00301114  RH  034%=      5-min Rain = 0
KSW1 112101Z 35007KT 03/M12 A3018 RMK A01 T00291115  RH  034%=      5-min Rain = 0
KSW1 112102Z 35008KT 03/M12 A3017 RMK A01 T00261115  RH  034%=      5-min Rain = 0
KSW1 112103Z 35009KT 03/M11 A3017 RMK A01 T00271114  RH  035%=      5-min Rain = 0
KSW1 112104Z 34008KT 03/M11 A3017 RMK A01 T00291113  RH  034%=      5-min Rain = 0
KSW1 112105Z 35008KT 03/M11 A3017 RMK A01 T00321111  RH  034%=      5-min Rain = 0
KSW1 112106Z 00008KT 03/M11 A3018 RMK A01 T00331111  RH  034%=      5-min Rain = 0
KSW1 112107Z 01006KT 03/M11 A3018 RMK A01 T00341112  RH  033%=      5-min Rain = 0
KSW1 112108Z 02009KT 03/M11 A3018 RMK A01 T00341112  RH  033%=      5-min Rain = 0
KSW1 112109Z 01007KT 03/M11 A3018 RMK A01 T00341112  RH  033%=      5-min Rain = 0
KSW1 112110Z 01004KT 04/M11 A3018 RMK A01 T00371110  RH  033%=      5-min Rain = 0
KSW1 112111Z 35004KT 04/M11 A3017 RMK A01 T00411108  RH  033%=      5-min Rain = 0
KSW1 112112Z 33011KT 04/M11 A3017 RMK A01 T00421110  RH  032%=      5-min Rain = 0
KSW1 112113Z 34012KT 04/M11 A3017 RMK A01 T00401111  RH  032%=      5-min Rain = 0
KSW1 112114Z 33009KT 04/M11 A3017 RMK A01 T00391111  RH  032%=      5-min Rain = 0
KSW1 112115Z 35007KT 04/M11 A3017 RMK A01 T00371111  RH  033%=      5-min Rain = 0
KSW1 112116Z 35005KT 04/M11 A3017 RMK A01 T00361112  RH  033%=      5-min Rain = 0
KSW1 112117Z 03007KT 04/M11 A3017 RMK A01 T00361110  RH  033%=      5-min Rain = 0
KSW1 112118Z 01007KT 04/M11 A3017 RMK A01 T00381110  RH  033%=      5-min Rain = 0
KSW1 112119Z 33006KT 04/M11 A3017 RMK A01 T00381110  RH  033%=      5-min Rain = 0
KSW1 112120Z 01006KT 04/M11 A3017 RMK A01 T00391109  RH  033%=      5-min Rain = 0
KSW1 112121Z 36008KT 04/M11 A3017 RMK A01 T00411108  RH  033%=      5-min Rain = 0
KSW1 112122Z 32008KT 04/M11 A3017 RMK A01 T00441108  RH  032%=      5-min Rain = 0
KSW1 112123Z 32008KT 04/M11 A3017 RMK A01 T00441109  RH  032%=      5-min Rain = 0
KSW1 112124Z 34009KT 04/M11 A3017 RMK A01 T00421110  RH  032%=      5-min Rain = 0
KSW1 112125Z 35005KT 04/M11 A3017 RMK A01 T00391112  RH  032%=      5-min Rain = 0
KSW1 112126Z 35003KT 04/M11 A3017 RMK A01 T00371112  RH  033%=      5-min Rain = 0
KSW1 112127Z 35008KT 04/M11 A3017 RMK A01 T00391108  RH  033%=      5-min Rain = 0
KSW1 112128Z 01007KT 04/M11 A3017 RMK A01 T00421108  RH  033%=      5-min Rain = 0
KSW1 112129Z 02005KT 05/M11 A3017 RMK A01 T00451108  RH  032%=      5-min Rain = 0
KSW1 112130Z 00007KT 05/M11 A3017 RMK A01 T00461108  RH  032%=      5-min Rain = 0
KSW1 112131Z 01007KT 05/M11 A3017 RMK A01 T00461108  RH  032%=      5-min Rain = 0
KSW1 112132Z 00010KT 05/M11 A3017 RMK A01 T00461108  RH  032%=      5-min Rain = 0
KSW1 112133Z 35011KT 05/M11 A3017 RMK A01 T00461107  RH  032%=      5-min Rain = 0
KSW1 112134Z 35011KT 05/M11 A3017 RMK A01 T00471106  RH  032%=      5-min Rain = 0
KSW1 112135Z 36013KT 05/M11 A3017 RMK A01 T00461108  RH  032%=      5-min Rain = 0
KSW1 112136Z 00011KT 05/M11 A3017 RMK A01 T00461107  RH  032%=      5-min Rain = 0
KSW1 112137Z 35013KT 05/M11 A3017 RMK A01 T00471107  RH  032%=      5-min Rain = 0
KSW1 112138Z 35013KT 05/M11 A3017 RMK A01 T00481107  RH  032%=      5-min Rain = 0
KSW1 112139Z 00012KT 05/M11 A3017 RMK A01 T00481108  RH  031%=      5-min Rain = 0
KSW1 112140Z 01010KT 05/M11 A3017 RMK A01 T00461108  RH  032%=      5-min Rain = 0
KSW1 112141Z 02009KT 05/M11 A3017 RMK A01 T00451109  RH  032%=      5-min Rain = 0
KSW1 112142Z 00009KT 05/M11 A3017 RMK A01 T00451109  RH  032%=      5-min Rain = 0
KSW1 112143Z 01009KT 04/M11 A3017 RMK A01 T00431110  RH  032%=      5-min Rain = 0
KSW1 112144Z 00008KT 04/M11 A3017 RMK A01 T00421109  RH  032%=      5-min Rain = 0
KSW1 112145Z 00009KT 04/M11 A3017 RMK A01 T00421109  RH  032%=      5-min Rain = 0
KSW1 112146Z 35009KT 04/M11 A3017 RMK A01 T00421109  RH  032%=      5-min Rain = 0
KSW1 112147Z 35006KT 04/M11 A3017 RMK A01 T00401110  RH  033%=      5-min Rain = 0
KSW1 112148Z 35005KT 04/M11 A3017 RMK A01 T00401109  RH  033%=      5-min Rain = 0
KSW1 112149Z 35005KT 04/M11 A3017 RMK A01 T00401108  RH  033%=      5-min Rain = 0
KSW1 112150Z 01005KT 04/M11 A3017 RMK A01 T00431106  RH  033%=      5-min Rain = 0
KSW1 112151Z 01009KT 05/M10 A3017 RMK A01 T00491104  RH  032%=      5-min Rain = 0
KSW1 112152Z 00009KT 05/M11 A3017 RMK A01 T00511105  RH  031%=      5-min Rain = 0
KSW1 112153Z 01010KT 05/M11 A3017 RMK A01 T00541105  RH  031%=      5-min Rain = 0
KSW1 112154Z 01009KT 05/M11 A3017 RMK A01 T00521108  RH  030%=      5-min Rain = 0
KSW1 112155Z 02012KT 05/M11 A3017 RMK A01 T00511107  RH  031%=      5-min Rain = 0
KSW1 112156Z 02008KT 05/M11 A3017 RMK A01 T00521107  RH  031%=      5-min Rain = 0
KSW1 112157Z 02006KT 05/M11 A3017 RMK A01 T00501108  RH  031%=      5-min Rain = 0
KSW1 112158Z 01011KT 05/M11 A3017 RMK A01 T00481108  RH  031%=      5-min Rain = 0
KSW1 112159Z 35011KT 05/M11 A3017 RMK A01 T00491107  RH  031%=      5-min Rain = 0
KSW1 112200Z 36009KT 05/M11 A3017 RMK A01 T00471108  RH  031%=      5-min Rain = 0
KSW1 112201Z 35007KT 05/M11 A3017 RMK A01 T00451109  RH  032%=      5-min Rain = 0
KSW1 112202Z 00011KT 05/M11 A3017 RMK A01 T00451107  RH  032%=      5-min Rain = 0
KSW1 112203Z 01008KT 05/M11 A3017 RMK A01 T00481105  RH  032%=      5-min Rain = 0
KSW1 112204Z 01011KT 05/M11 A3017 RMK A01 T00501105  RH  032%=      5-min Rain = 0
KSW1 112205Z 01010KT 05/M11 A3017 RMK A01 T00491106  RH  031%=      5-min Rain = 0
KSW1 112206Z 36008KT 05/M11 A3017 RMK A01 T00491107  RH  031%=      5-min Rain = 0
KSW1 112207Z 35011KT 05/M11 A3017 RMK A01 T00481106  RH  032%=      5-min Rain = 0
KSW1 112208Z 36009KT 05/M11 A3017 RMK A01 T00481107  RH  032%=      5-min Rain = 0
KSW1 112209Z 02009KT 05/M11 A3017 RMK A01 T00481107  RH  032%=      5-min Rain = 0
KSW1 112210Z 01010KT 05/M11 A3017 RMK A01 T00491107  RH  031%=      5-min Rain = 0
KSW1 112211Z 02008G13KT 05/M11 A3017 RMK A01 T00461110  RH  031%=      5-min Rain = 0
KSW1 112212Z 03010KT 04/M11 A3017 RMK A01 T00431110  RH  032%=      5-min Rain = 0
KSW1 112213Z 03006KT 04/M11 A3017 RMK A01 T00401110  RH  032%=      5-min Rain = 0
KSW1 112214Z 03007KT 04/M11 A3017 RMK A01 T00391110  RH  033%=      5-min Rain = 0
KSW1 112215Z 03008KT 04/M11 A3017 RMK A01 T00391110  RH  033%=      5-min Rain = 0
KSW1 112216Z 03009KT 04/M11 A3017 RMK A01 T00381110  RH  033%=      5-min Rain = 0
KSW1 112217Z 02010KT 04/M11 A3018 RMK A01 T00381109  RH  033%=      5-min Rain = 0
KSW1 112218Z 03008KT 04/M11 A3018 RMK A01 T00381110  RH  033%=      5-min Rain = 0
KSW1 112219Z 02007KT 04/M11 A3018 RMK A01 T00381109  RH  033%=      5-min Rain = 0
KSW1 112220Z 00006KT 04/M11 A3017 RMK A01 T00391109  RH  033%=      5-min Rain = 0
KSW1 112221Z 01007KT 04/M11 A3017 RMK A01 T00381110  RH  033%=      5-min Rain = 0
KSW1 112222Z 02006KT 04/M11 A3017 RMK A01 T00371110  RH  033%=      5-min Rain = 0
KSW1 112223Z 01010KT 04/M11 A3017 RMK A01 T00361109  RH  034%=      5-min Rain = 0
KSW1 112224Z 01010KT 04/M11 A3017 RMK A01 T00361109  RH  034%=      5-min Rain = 0
KSW1 112225Z 01009KT 04/M11 A3017 RMK A01 T00361109  RH  034%=      5-min Rain = 0
KSW1 112226Z 01008KT 04/M11 A3017 RMK A01 T00361109  RH  034%=      5-min Rain = 0
KSW1 112227Z 02007KT 04/M11 A3017 RMK A01 T00361109  RH  034%=      5-min Rain = 0
KSW1 112228Z 02009KT 04/M11 A3017 RMK A01 T00371109  RH  034%=      5-min Rain = 0
KSW1 112229Z 00011KT 04/M11 A3017 RMK A01 T00381108  RH  034%=      5-min Rain = 0
KSW1 112230Z 01008KT 04/M11 A3017 RMK A01 T00381108  RH  034%=      5-min Rain = 0
KSW1 112231Z 01006KT 04/M11 A3017 RMK A01 T00371108  RH  034%=      5-min Rain = 0
KSW1 112232Z 36007KT 04/M11 A3017 RMK A01 T00381108  RH  034%=      5-min Rain = 0
KSW1 112233Z 00007KT 04/M11 A3017 RMK A01 T00381108  RH  034%=      5-min Rain = 0
KSW1 112234Z 00006KT 04/M11 A3017 RMK A01 T00381107  RH  034%=      5-min Rain = 0
KSW1 112235Z 01010KT 04/M11 A3017 RMK A01 T00381107  RH  034%=      5-min Rain = 0
KSW1 112236Z 02010KT 04/M11 A3017 RMK A01 T00391107  RH  034%=      5-min Rain = 0
KSW1 112237Z 02009KT 04/M11 A3017 RMK A01 T00391107  RH  034%=      5-min Rain = 0
KSW1 112238Z 02009KT 04/M11 A3017 RMK A01 T00391107  RH  034%=      5-min Rain = 0
KSW1 112239Z 02008KT 04/M11 A3017 RMK A01 T00401106  RH  034%=      5-min Rain = 0
KSW1 112240Z 02008KT 04/M11 A3017 RMK A01 T00411106  RH  033%=      5-min Rain = 0
KSW1 112241Z 02006KT 04/M11 A3017 RMK A01 T00421106  RH  033%=      5-min Rain = 0
KSW1 112242Z 36008KT 05/M11 A3017 RMK A01 T00451105  RH  033%=      5-min Rain = 0
KSW1 112243Z 00009KT 05/M11 A3017 RMK A01 T00451105  RH  033%=      5-min Rain = 0
KSW1 112244Z 01011KT 05/M11 A3017 RMK A01 T00451106  RH  033%=      5-min Rain = 0
KSW1 112245Z 03010KT 04/M11 A3017 RMK A01 T00441106  RH  033%=      5-min Rain = 0
KSW1 112246Z 02008KT 04/M11 A3017 RMK A01 T00421108  RH  033%=      5-min Rain = 0
KSW1 112247Z 02008KT 04/M11 A3017 RMK A01 T00401109  RH  033%=      5-min Rain = 0
KSW1 112248Z 02008KT 04/M11 A3017 RMK A01 T00391108  RH  033%=      5-min Rain = 0
KSW1 112249Z 03008KT 04/M11 A3017 RMK A01 T00391108  RH  033%=      5-min Rain = 0
KSW1 112250Z 03006KT 04/M11 A3017 RMK A01 T00391108  RH  033%=      5-min Rain = 0
KSW1 112251Z 01008KT 04/M11 A3017 RMK A01 T00381108  RH  033%=      5-min Rain = 0
KSW1 112252Z 02011KT 04/M11 A3017 RMK A01 T00381108  RH  034%=      5-min Rain = 0
KSW1 112253Z 02008KT 04/M11 A3017 RMK A01 T00371109  RH  034%=      5-min Rain = 0
KSW1 112254Z 02006KT 04/M11 A3017 RMK A01 T00371109  RH  034%=      5-min Rain = 0
KSW1 112255Z 01008KT 04/M11 A3017 RMK A01 T00371108  RH  034%=      5-min Rain = 0
KSW1 112256Z 02008KT 04/M11 A3017 RMK A01 T00381108  RH  034%=      5-min Rain = 0
KSW1 112257Z 01007KT 04/M11 A3017 RMK A01 T00381107  RH  034%=      5-min Rain = 0
KSW1 112258Z 02006KT 04/M11 A3017 RMK A01 T00391107  RH  034%=      5-min Rain = 0
KSW1 112259Z 01006KT 04/M11 A3017 RMK A01 T00391107  RH  034%=      5-min Rain = 0
KSW1 112300Z 02007KT 04/M11 A3017 RMK A01 T00401106  RH  033%=      5-min Rain = 0
KSW1 112301Z 03006G12KT 04/M11 A3017 RMK A01 T00411106  RH  033%=      5-min Rain = 0
KSW1 112302Z 02008KT 04/M11 A3017 RMK A01 T00411107  RH  033%=      5-min Rain = 0
KSW1 112303Z 01008KT 04/M11 A3017 RMK A01 T00411107  RH  033%=      5-min Rain = 0
KSW1 112304Z 00008KT 04/M11 A3017 RMK A01 T00401107  RH  033%=      5-min Rain = 0
KSW1 112305Z 36007KT 04/M11 A3017 RMK A01 T00391107  RH  034%=      5-min Rain = 0
KSW1 112306Z 01007KT 04/M11 A3017 RMK A01 T00391107  RH  034%=      5-min Rain = 0
KSW1 112307Z 04007KT 04/M11 A3017 RMK A01 T00391106  RH  034%=      5-min Rain = 0
KSW1 112308Z 03008KT 04/M11 A3017 RMK A01 T00401106  RH  034%=      5-min Rain = 0
KSW1 112309Z 03007KT 04/M11 A3018 RMK A01 T00411106  RH  033%=      5-min Rain = 0
KSW1 112310Z 01007KT 04/M11 A3018 RMK A01 T00431105  RH  033%=      5-min Rain = 0
KSW1 112311Z 02006KT 04/M11 A3018 RMK A01 T00441105  RH  033%=      5-min Rain = 0
KSW1 112312Z 03007KT 05/M11 A3018 RMK A01 T00461105  RH  032%=      5-min Rain = 0
KSW1 112313Z 02006KT 05/M11 A3018 RMK A01 T00471106  RH  032%=      5-min Rain = 0
KSW1 112314Z 03007KT 05/M11 A3018 RMK A01 T00471105  RH  032%=      5-min Rain = 0
KSW1 112315Z 01008KT 05/M11 A3018 RMK A01 T00481105  RH  032%=      5-min Rain = 0
KSW1 112316Z 01007KT 05/M11 A3018 RMK A01 T00481105  RH  032%=      5-min Rain = 0
KSW1 112317Z 02008KT 05/M11 A3018 RMK A01 T00481106  RH  032%=      5-min Rain = 0
KSW1 112318Z 02008KT 05/M11 A3018 RMK A01 T00471106  RH  032%=      5-min Rain = 0
KSW1 112319Z 03008KT 05/M11 A3018 RMK A01 T00471106  RH  032%=      5-min Rain = 0
KSW1 112320Z 03008KT 05/M11 A3018 RMK A01 T00451107  RH  032%=      5-min Rain = 0
KSW1 112321Z 03008KT 04/M11 A3017 RMK A01 T00431108  RH  032%=      5-min Rain = 0
KSW1 112322Z 02008KT 04/M11 A3017 RMK A01 T00411108  RH  033%=      5-min Rain = 0
KSW1 112323Z 02009KT 04/M11 A3017 RMK A01 T00411108  RH  033%=      5-min Rain = 0
KSW1 112324Z 02009KT 04/M11 A3017 RMK A01 T00401108  RH  033%=      5-min Rain = 0
KSW1 112325Z 02008KT 04/M11 A3018 RMK A01 T00391108  RH  033%=      5-min Rain = 0
KSW1 112326Z 02007KT 04/M11 A3018 RMK A01 T00391108  RH  033%=      5-min Rain = 0
KSW1 112327Z 02006KT 04/M11 A3018 RMK A01 T00381108  RH  034%=      5-min Rain = 0
KSW1 112328Z 02005KT 04/M11 A3018 RMK A01 T00381108  RH  034%=      5-min Rain = 0
KSW1 112329Z 01005KT 04/M11 A3018 RMK A01 T00381107  RH  034%=      5-min Rain = 0
KSW1 112330Z 01006KT 04/M11 A3018 RMK A01 T00381107  RH  034%=      5-min Rain = 0
KSW1 112331Z 01005KT 04/M11 A3018 RMK A01 T00381107  RH  034%=      5-min Rain = 0
KSW1 112332Z 00005KT 04/M11 A3018 RMK A01 T00381107  RH  034%=      5-min Rain = 0
KSW1 112333Z 02003KT 04/M11 A3019 RMK A01 T00381107  RH  034%=      5-min Rain = 0
KSW1 112334Z 02002KT 04/M11 A3019 RMK A01 T00381107  RH  034%=      5-min Rain = 0
KSW1 112335Z 03003KT 04/M11 A3019 RMK A01 T00391107  RH  034%=      5-min Rain = 0
KSW1 112336Z 03003KT 04/M11 A3019 RMK A01 T00401106  RH  034%=      5-min Rain = 0
KSW1 112337Z 02003KT 04/M11 A3019 RMK A01 T00411106  RH  033%=      5-min Rain = 0
KSW1 112338Z 03005KT 04/M11 A3019 RMK A01 T00421106  RH  033%=      5-min Rain = 0
KSW1 112339Z 01004KT 04/M11 A3018 RMK A01 T00421106  RH  033%=      5-min Rain = 0
KSW1 112340Z 01006KT 04/M11 A3018 RMK A01 T00431106  RH  033%=      5-min Rain = 0
KSW1 112341Z 02007KT 04/M11 A3018 RMK A01 T00441106  RH  033%=      5-min Rain = 0
KSW1 112342Z 02007KT 04/M11 A3018 RMK A01 T00441106  RH  033%=      5-min Rain = 0
KSW1 112343Z 02009KT 04/M11 A3018 RMK A01 T00441106  RH  033%=      5-min Rain = 0
KSW1 112344Z 02008KT 04/M11 A3018 RMK A01 T00431107  RH  033%=      5-min Rain = 0
KSW1 112345Z 01007KT 04/M11 A3018 RMK A01 T00431107  RH  033%=      5-min Rain = 0
KSW1 112346Z 02007KT 04/M11 A3018 RMK A01 T00421107  RH  033%=      5-min Rain = 0
KSW1 112347Z 03007KT 04/M11 A3018 RMK A01 T00421106  RH  033%=      5-min Rain = 0
KSW1 112348Z 03006KT 04/M11 A3018 RMK A01 T00421107  RH  033%=      5-min Rain = 0
KSW1 112349Z 03007KT 04/M11 A3018 RMK A01 T00421106  RH  033%=      5-min Rain = 0
KSW1 112350Z 03008KT 04/M11 A3018 RMK A01 T00421107  RH  033%=      5-min Rain = 0
KSW1 112351Z 02008KT 04/M11 A3018 RMK A01 T00421107  RH  033%=      5-min Rain = 0
KSW1 112352Z 03007KT 04/M11 A3018 RMK A01 T00421106  RH  033%=      5-min Rain = 0
KSW1 112353Z 03009KT 04/M11 A3018 RMK A01 T00411107  RH  033%=      5-min Rain = 0
KSW1 112354Z 02008KT 04/M11 A3018 RMK A01 T00411107  RH  033%=      5-min Rain = 0
KSW1 112355Z 02006KT 04/M11 A3018 RMK A01 T00411107  RH  033%=      5-min Rain = 0
KSW1 112356Z 01006KT 04/M11 A3018 RMK A01 T00401107  RH  033%=      5-min Rain = 0
KSW1 112357Z 02006KT 04/M11 A3018 RMK A01 T00391108  RH  033%=      5-min Rain = 0
KSW1 112358Z 02005KT 04/M11 A3018 RMK A01 T00381108  RH  034%=      5-min Rain = 0
KSW1 112359Z 02005KT 04/M11 A3018 RMK A01 T00371108  RH  034%=      5-min Rain = 0
KSW1 120000Z 02004KT 04/M11 A3018 RMK A01 T00361109  RH  034%=      5-min Rain = 0
KSW1 120001Z 02005KT 04/M11 A3019 RMK A01 T00351109  RH  034%=      5-min Rain = 0
KSW1 120002Z 01005KT 03/M11 A3019 RMK A01 T00341108  RH  034%=      5-min Rain = 0
KSW1 120003Z 02007KT 03/M11 A3019 RMK A01 T00331108  RH  035%=      5-min Rain = 0
KSW1 120004Z 02008KT 03/M11 A3019 RMK A01 T00331108  RH  035%=      5-min Rain = 0
KSW1 120005Z 02007KT 03/M11 A3019 RMK A01 T00331108  RH  035%=      5-min Rain = 0
KSW1 120006Z 02007KT 03/M11 A3019 RMK A01 T00321109  RH  035%=      5-min Rain = 0
KSW1 120007Z 02006KT 03/M11 A3019 RMK A01 T00311109  RH  035%=      5-min Rain = 0
KSW1 120008Z 02006KT 03/M11 A3019 RMK A01 T00311109  RH  035%=      5-min Rain = 0
KSW1 120009Z 02006KT 03/M11 A3019 RMK A01 T00301109  RH  035%=      5-min Rain = 0
KSW1 120010Z 01006KT 03/M11 A3019 RMK A01 T00301109  RH  035%=      5-min Rain = 0
KSW1 120011Z 02005KT 03/M11 A3019 RMK A01 T00301109  RH  035%=      5-min Rain = 0
KSW1 120012Z 03005KT 03/M11 A3019 RMK A01 T00291109  RH  035%=      5-min Rain = 0
KSW1 120013Z 03005KT 03/M11 A3019 RMK A01 T00291109  RH  035%=      5-min Rain = 0
KSW1 120014Z 03006KT 03/M11 A3019 RMK A01 T00281110  RH  036%=      5-min Rain = 0
KSW1 120015Z 03006KT 03/M11 A3019 RMK A01 T00271110  RH  036%=      5-min Rain = 0
KSW1 120016Z 03007KT 03/M11 A3019 RMK A01 T00281110  RH  036%=      5-min Rain = 0
KSW1 120017Z 03007KT 03/M11 A3019 RMK A01 T00271110  RH  036%=      5-min Rain = 0
KSW1 120018Z 02007KT 03/M11 A3019 RMK A01 T00271110  RH  036%=      5-min Rain = 0
KSW1 120019Z 02007KT 03/M11 A3019 RMK A01 T00271110  RH  036%=      5-min Rain = 0
KSW1 120020Z 03006KT 03/M11 A3019 RMK A01 T00271110  RH  036%=      5-min Rain = 0
KSW1 120021Z 03006KT 03/M11 A3019 RMK A01 T00261111  RH  036%=      5-min Rain = 0
KSW1 120022Z 03006KT 03/M11 A3019 RMK A01 T00251111  RH  036%=      5-min Rain = 0
KSW1 120023Z 02006KT 02/M11 A3019 RMK A01 T00241111  RH  036%=      5-min Rain = 0
KSW1 120024Z 03006KT 02/M11 A3019 RMK A01 T00231111  RH  036%=      5-min Rain = 0
KSW1 120025Z 03006KT 02/M11 A3019 RMK A01 T00231111  RH  037%=      5-min Rain = 0
KSW1 120026Z 03006KT 02/M11 A3019 RMK A01 T00221111  RH  037%=      5-min Rain = 0
KSW1 120027Z 02007KT 02/M11 A3019 RMK A01 T00211111  RH  037%=      5-min Rain = 0
KSW1 120028Z 02007KT 02/M11 A3019 RMK A01 T00211111  RH  037%=      5-min Rain = 0
KSW1 120029Z 02006KT 02/M11 A3019 RMK A01 T00211111  RH  037%=      5-min Rain = 0
KSW1 120030Z 02006KT 02/M11 A3019 RMK A01 T00201112  RH  037%=      5-min Rain = 0
KSW1 120031Z 03006KT 02/M11 A3019 RMK A01 T00201112  RH  037%=      5-min Rain = 0
KSW1 120032Z 03006KT 02/M11 A3019 RMK A01 T00191112  RH  037%=      5-min Rain = 0
KSW1 120033Z 03006KT 02/M11 A3019 RMK A01 T00181112  RH  037%=      5-min Rain = 0
KSW1 120034Z 03006KT 02/M11 A3019 RMK A01 T00181112  RH  037%=      5-min Rain = 0
KSW1 120035Z 04005KT 02/M11 A3019 RMK A01 T00181112  RH  038%=      5-min Rain = 0
KSW1 120036Z 04005KT 02/M11 A3019 RMK A01 T00171112  RH  038%=      5-min Rain = 0
KSW1 120037Z 04005KT 02/M11 A3019 RMK A01 T00161113  RH  038%=      5-min Rain = 0
KSW1 120038Z 04005KT 02/M11 A3019 RMK A01 T00161113  RH  038%=      5-min Rain = 0
KSW1 120039Z 04005KT 02/M11 A3019 RMK A01 T00151113  RH  038%=      5-min Rain = 0
KSW1 120040Z 05005KT 01/M11 A3019 RMK A01 T00141114  RH  038%=      5-min Rain = 0
KSW1 120041Z 05005KT 01/M11 A3019 RMK A01 T00131113  RH  038%=      5-min Rain = 0
KSW1 120042Z 05005KT 01/M11 A3019 RMK A01 T00121114  RH  039%=      5-min Rain = 0
KSW1 120043Z 04005KT 01/M11 A3019 RMK A01 T00111114  RH  039%=      5-min Rain = 0
KSW1 120044Z 04005KT 01/M11 A3019 RMK A01 T00111113  RH  039%=      5-min Rain = 0
KSW1 120045Z 04006KT 01/M11 A3019 RMK A01 T00101114  RH  039%=      5-min Rain = 0
KSW1 120046Z 04006KT 01/M11 A3019 RMK A01 T00091114  RH  039%=      5-min Rain = 0
KSW1 120047Z 04006KT 01/M11 A3019 RMK A01 T00081114  RH  039%=      5-min Rain = 0
KSW1 120048Z 04006KT 01/M11 A3019 RMK A01 T00081114  RH  040%=      5-min Rain = 0
KSW1 120049Z 04006KT 01/M11 A3019 RMK A01 T00081113  RH  040%=      5-min Rain = 0
KSW1 120050Z 04006KT 01/M11 A302 RMK A01 T00081113  RH  040%=      5-min Rain = 0
KSW1 120051Z 04006KT 01/M11 A302 RMK A01 T00081113  RH  040%=      5-min Rain = 0
KSW1 120052Z 04006KT 01/M11 A302 RMK A01 T00071113  RH  040%=      5-min Rain = 0
KSW1 120053Z 04006KT 01/M11 A302 RMK A01 T00071113  RH  040%=      5-min Rain = 0
KSW1 120054Z 04006KT 01/M11 A302 RMK A01 T00081113  RH  040%=      5-min Rain = 0
KSW1 120055Z 03006KT 01/M11 A302 RMK A01 T00081112  RH  040%=      5-min Rain = 0
KSW1 120056Z 04006KT 01/M11 A302 RMK A01 T00091112  RH  040%=      5-min Rain = 0
KSW1 120057Z 04006KT 01/M11 A302 RMK A01 T00091112  RH  040%=      5-min Rain = 0
KSW1 120058Z 04006KT 01/M11 A302 RMK A01 T00091113  RH  040%=      5-min Rain = 0
KSW1 120059Z 04006KT 01/M11 A302 RMK A01 T00081113  RH  040%=      5-min Rain = 0
KSW1 120100Z 04006KT 01/M11 A302 RMK A01 T00071114  RH  040%=      5-min Rain = 0
KSW1 120101Z 04006KT 01/M11 A302 RMK A01 T00061114  RH  040%=      5-min Rain = 0
KSW1 120102Z 04006KT 01/M11 A302 RMK A01 T00051114  RH  040%=      5-min Rain = 0
KSW1 120103Z 04006KT 00/M11 A302 RMK A01 T00041114  RH  041%=      5-min Rain = 0
KSW1 120104Z 04006KT 00/M11 A302 RMK A01 T00041114  RH  041%=      5-min Rain = 0
KSW1 120105Z 05006KT 00/M11 A302 RMK A01 T00031114  RH  041%=      5-min Rain = 0
KSW1 120106Z 05005KT 00/M11 A302 RMK A01 T00031114  RH  041%=      5-min Rain = 0
KSW1 120107Z 05005KT 00/M11 A302 RMK A01 T00031114  RH  041%=      5-min Rain = 0
KSW1 120108Z 05005KT 00/M11 A302 RMK A01 T00021114  RH  041%=      5-min Rain = 0
KSW1 120109Z 05005KT 00/M11 A302 RMK A01 T00021114  RH  041%=      5-min Rain = 0
KSW1 120110Z 04005KT 00/M11 A302 RMK A01 T00021114  RH  041%=      5-min Rain = 0
KSW1 120111Z 04006KT 00/M11 A302 RMK A01 T00021114  RH  042%=      5-min Rain = 0
KSW1 120112Z 04006KT 00/M11 A302 RMK A01 T00011114  RH  042%=      5-min Rain = 0
KSW1 120113Z 04006KT 00/M11 A302 RMK A01 T00011114  RH  042%=      5-min Rain = 0
KSW1 120114Z 04006KT 00/M11 A302 RMK A01 T00011114  RH  042%=      5-min Rain = 0
KSW1 120115Z 04006KT 00/M11 A302 RMK A01 T00011114  RH  042%=      5-min Rain = 0
KSW1 120116Z 04006KT 00/M11 A302 RMK A01 T00021113  RH  042%=      5-min Rain = 0
KSW1 120117Z 04006KT 00/M11 A302 RMK A01 T00031113  RH  042%=      5-min Rain = 0
KSW1 120118Z 04006KT 00/M11 A302 RMK A01 T00021114  RH  041%=      5-min Rain = 0
KSW1 120119Z 05006KT 00/M11 A302 RMK A01 T00021114  RH  041%=      5-min Rain = 0
KSW1 120120Z 05006KT 00/12 A302 RMK A01 T00000-115  RH  041%=      5-min Rain = 0
KSW1 120121Z 05006KT M00/M12 A302 RMK A01 T10011116  RH  042%=      5-min Rain = 0
KSW1 120122Z 05006KT M00/M12 A302 RMK A01 T10021116  RH  042%=      5-min Rain = 0
KSW1 120123Z 05006KT M00/M12 A302 RMK A01 T10031115  RH  042%=      5-min Rain = 0
KSW1 120124Z 05006KT M00/M12 A3021 RMK A01 T10031115  RH  043%=      5-min Rain = 0
KSW1 120125Z 04006KT M00/M11 A3021 RMK A01 T10031114  RH  043%=      5-min Rain = 0
KSW1 120126Z 04006KT M00/M12 A3021 RMK A01 T10031115  RH  043%=      5-min Rain = 0
KSW1 120127Z 04006KT M00/M11 A3021 RMK A01 T10031114  RH  043%=      5-min Rain = 0
KSW1 120128Z 03007KT M00/M11 A3021 RMK A01 T10031114  RH  043%=      5-min Rain = 0
KSW1 120129Z 03008KT M00/M11 A3021 RMK A01 T10011113  RH  043%=      5-min Rain = 0
KSW1 120130Z 03007KT 00/M11 A3021 RMK A01 T00021111  RH  042%=      5-min Rain = 0
KSW1 120131Z 03008KT 00/M11 A3021 RMK A01 T00041111  RH  042%=      5-min Rain = 0
KSW1 120132Z 03009KT 00/M11 A3021 RMK A01 T00041112  RH  041%=      5-min Rain = 0
KSW1 120133Z 03008KT 01/M11 A3021 RMK A01 T00051112  RH  041%=      5-min Rain = 0
KSW1 120134Z 03008KT 01/M11 A3021 RMK A01 T00071111  RH  041%=      5-min Rain = 0
KSW1 120135Z 03008KT 01/M11 A3021 RMK A01 T00071112  RH  041%=      5-min Rain = 0
KSW1 120136Z 03008KT 01/M11 A3021 RMK A01 T00071112  RH  041%=      5-min Rain = 0
KSW1 120137Z 03008KT 01/M11 A3021 RMK A01 T00071111  RH  041%=      5-min Rain = 0
KSW1 120138Z 03008KT 01/M11 A3021 RMK A01 T00071112  RH  041%=      5-min Rain = 0
KSW1 120139Z 04008KT 01/M11 A3021 RMK A01 T00071111  RH  041%=      5-min Rain = 0
KSW1 120140Z 04007KT 01/M11 A3021 RMK A01 T00071111  RH  041%=      5-min Rain = 0
KSW1 120141Z 04007KT 01/M11 A3021 RMK A01 T00071112  RH  041%=      5-min Rain = 0
KSW1 120142Z 04007KT 01/M11 A3021 RMK A01 T00061112  RH  041%=      5-min Rain = 0
KSW1 120143Z 04007KT 00/M11 A3021 RMK A01 T00041113  RH  041%=      5-min Rain = 0
KSW1 120144Z 04007KT 00/M11 A3021 RMK A01 T00041113  RH  041%=      5-min Rain = 0
KSW1 120145Z 03008KT 00/M11 A3021 RMK A01 T00031113  RH  041%=      5-min Rain = 0
KSW1 120146Z 03007KT 00/M11 A3021 RMK A01 T00021113  RH  042%=      5-min Rain = 0
KSW1 120147Z 03007KT 00/M11 A3021 RMK A01 T00021113  RH  042%=      5-min Rain = 0
KSW1 120148Z 04007KT 00/M11 A3022 RMK A01 T00021113  RH  042%=      5-min Rain = 0
KSW1 120149Z 04007KT 00/M11 A3022 RMK A01 T00011114  RH  042%=      5-min Rain = 0
KSW1 120150Z 04007KT 00/11 A3022 RMK A01 T00000-114  RH  042%=      5-min Rain = 0
KSW1 120151Z 04006KT M00/M11 A3022 RMK A01 T10011114  RH  042%=      5-min Rain = 0
KSW1 120152Z 04007KT M00/M12 A3022 RMK A01 T10021115  RH  042%=      5-min Rain = 0
KSW1 120153Z 04007KT M00/M12 A3022 RMK A01 T10031115  RH  043%=      5-min Rain = 0
KSW1 120154Z 04007KT M00/M12 A3022 RMK A01 T10041115  RH  043%=      5-min Rain = 0
KSW1 120155Z 04006KT M01/M12 A3022 RMK A01 T10051115  RH  043%=      5-min Rain = 0
KSW1 120156Z 05006KT M01/M12 A3022 RMK A01 T10051115  RH  043%=      5-min Rain = 0
KSW1 120157Z 05006KT M01/M12 A3022 RMK A01 T10061115  RH  043%=      5-min Rain = 0
KSW1 120158Z 04006KT M01/M12 A3022 RMK A01 T10071116  RH  044%=      5-min Rain = 0
KSW1 120159Z 04006KT M01/M12 A3022 RMK A01 T10081116  RH  044%=      5-min Rain = 0
KSW1 120200Z 04006KT M01/M12 A3023 RMK A01 T10091116  RH  044%=      5-min Rain = 0
KSW1 120201Z 04006KT M01/M12 A3023 RMK A01 T10091116  RH  044%=      5-min Rain = 0
KSW1 120202Z 04006KT M01/M12 A3023 RMK A01 T10091115  RH  044%=      5-min Rain = 0
KSW1 120203Z 04006KT M01/M12 A3023 RMK A01 T10101115  RH  045%=      5-min Rain = 0
KSW1 120204Z 04006KT M01/M12 A3023 RMK A01 T10091115  RH  045%=      5-min Rain = 0
KSW1 120205Z 04007KT M01/M12 A3023 RMK A01 T10101115  RH  045%=      5-min Rain = 0
KSW1 120206Z 04007KT M01/M12 A3023 RMK A01 T10101116  RH  045%=      5-min Rain = 0
KSW1 120207Z 04007KT M01/M12 A3023 RMK A01 T10111116  RH  045%=      5-min Rain = 0
KSW1 120208Z 04007KT M01/M12 A3023 RMK A01 T10121116  RH  045%=      5-min Rain = 0
KSW1 120209Z 04007KT M01/M12 A3023 RMK A01 T10121116  RH  045%=      5-min Rain = 0
KSW1 120210Z 04007KT M01/M12 A3023 RMK A01 T10131116  RH  045%=      5-min Rain = 0
KSW1 120211Z 04007KT M01/M12 A3023 RMK A01 T10131116  RH  045%=      5-min Rain = 0
KSW1 120212Z 04007KT M01/M12 A3023 RMK A01 T10131116  RH  046%=      5-min Rain = 0
KSW1 120213Z 04007KT M01/M12 A3023 RMK A01 T10131115  RH  046%=      5-min Rain = 0
KSW1 120214Z 04007KT M01/M12 A3023 RMK A01 T10131115  RH  046%=      5-min Rain = 0
KSW1 120215Z 04008KT M01/M12 A3023 RMK A01 T10121115  RH  046%=      5-min Rain = 0
KSW1 120216Z 04008KT M01/M12 A3023 RMK A01 T10131115  RH  046%=      5-min Rain = 0
KSW1 120217Z 04008KT M01/M12 A3023 RMK A01 T10131115  RH  046%=      5-min Rain = 0
KSW1 120218Z 04008KT M01/M12 A3023 RMK A01 T10121115  RH  046%=      5-min Rain = 0
KSW1 120219Z 04007KT M01/M12 A3023 RMK A01 T10111115  RH  045%=      5-min Rain = 0
KSW1 120220Z 03007KT M01/M11 A3023 RMK A01 T10111114  RH  045%=      5-min Rain = 0
KSW1 120221Z 03007KT M01/M12 A3023 RMK A01 T10101115  RH  045%=      5-min Rain = 0
KSW1 120222Z 04007KT M01/M12 A3023 RMK A01 T10101115  RH  045%=      5-min Rain = 0
KSW1 120223Z 04008KT M01/M12 A3023 RMK A01 T10101115  RH  045%=      5-min Rain = 0
KSW1 120224Z 04008KT M01/M12 A3023 RMK A01 T10111115  RH  045%=      5-min Rain = 0
KSW1 120225Z 04008KT M01/M12 A3023 RMK A01 T10101115  RH  045%=      5-min Rain = 0
KSW1 120226Z 04008KT M01/M12 A3023 RMK A01 T10101115  RH  045%=      5-min Rain = 0
KSW1 120227Z 04008KT M01/M12 A3023 RMK A01 T10111115  RH  045%=      5-min Rain = 0
KSW1 120228Z 04008KT M01/M12 A3023 RMK A01 T10121115  RH  045%=      5-min Rain = 0
KSW1 120229Z 03008KT M01/M12 A3023 RMK A01 T10131116  RH  045%=      5-min Rain = 0
KSW1 120230Z 03007KT M01/M12 A3023 RMK A01 T10131116  RH  046%=      5-min Rain = 0
KSW1 120231Z 03007KT M01/M12 A3023 RMK A01 T10131115  RH  046%=      5-min Rain = 0
KSW1 120232Z 03007KT M01/M12 A3024 RMK A01 T10131115  RH  046%=      5-min Rain = 0
KSW1 120233Z 03007KT M01/M12 A3024 RMK A01 T10131116  RH  046%=      5-min Rain = 0
KSW1 120234Z 04007KT M01/M12 A3024 RMK A01 T10131115  RH  046%=      5-min Rain = 0
KSW1 120235Z 04007KT M01/M12 A3024 RMK A01 T10131116  RH  046%=      5-min Rain = 0
KSW1 120236Z 04006KT M01/M12 A3024 RMK A01 T10131116  RH  046%=      5-min Rain = 0
KSW1 120237Z 04006KT M01/M12 A3024 RMK A01 T10131115  RH  046%=      5-min Rain = 0
KSW1 120238Z 04007KT M01/M12 A3024 RMK A01 T10141116  RH  046%=      5-min Rain = 0
KSW1 120239Z 04007KT M01/M12 A3024 RMK A01 T10141116  RH  046%=      5-min Rain = 0
KSW1 120240Z 04007KT M02/M12 A3024 RMK A01 T10151116  RH  046%=      5-min Rain = 0
KSW1 120241Z 04007KT M02/M12 A3024 RMK A01 T10161117  RH  046%=      5-min Rain = 0
KSW1 120242Z 04007KT M02/M12 A3024 RMK A01 T10161117  RH  046%=      5-min Rain = 0
KSW1 120243Z 05006KT M02/M12 A3024 RMK A01 T10181118  RH  046%=      5-min Rain = 0
KSW1 120244Z 05006KT M02/M12 A3024 RMK A01 T10191119  RH  047%=      5-min Rain = 0
KSW1 120245Z 05006KT M02/M12 A3024 RMK A01 T10211119  RH  047%=      5-min Rain = 0
KSW1 120246Z 05006KT M02/M12 A3024 RMK A01 T10221119  RH  048%=      5-min Rain = 0
KSW1 120247Z 05006KT M02/M12 A3024 RMK A01 T10241119  RH  048%=      5-min Rain = 0
KSW1 120248Z 05006KT M02/M12 A3024 RMK A01 T10241119  RH  048%=      5-min Rain = 0
KSW1 120249Z 05006KT M03/M12 A3024 RMK A01 T10251118  RH  049%=      5-min Rain = 0
KSW1 120250Z 05006KT M03/M12 A3024 RMK A01 T10251118  RH  049%=      5-min Rain = 0
KSW1 120251Z 05006KT M03/M12 A3024 RMK A01 T10251118  RH  049%=      5-min Rain = 0
KSW1 120252Z 05006KT M03/M12 A3024 RMK A01 T10251118  RH  049%=      5-min Rain = 0
KSW1 120253Z 06006KT M03/M12 A3024 RMK A01 T10261119  RH  049%=      5-min Rain = 0
KSW1 120254Z 06005KT M03/M12 A3024 RMK A01 T10271119  RH  049%=      5-min Rain = 0
KSW1 120255Z 06005KT M03/M12 A3024 RMK A01 T10271119  RH  049%=      5-min Rain = 0
KSW1 120256Z 06004KT M03/M12 A3024 RMK A01 T10271119  RH  049%=      5-min Rain = 0
KSW1 120257Z 06004KT M03/M12 A3024 RMK A01 T10271119  RH  049%=      5-min Rain = 0
KSW1 120258Z 07004KT M03/M12 A3024 RMK A01 T10281119  RH  049%=      5-min Rain = 0
KSW1 120259Z 08003KT M03/M12 A3024 RMK A01 T10281119  RH  050%=      5-min Rain = 0
KSW1 120300Z 08003KT M03/M12 A3024 RMK A01 T10291119  RH  050%=      5-min Rain = 0
KSW1 120301Z 08003KT M03/M12 A3024 RMK A01 T10281118  RH  050%=      5-min Rain = 0
KSW1 120302Z 08004KT M03/M12 A3024 RMK A01 T10281118  RH  050%=      5-min Rain = 0
KSW1 120303Z 09004KT M03/M12 A3025 RMK A01 T10281118  RH  050%=      5-min Rain = 0
KSW1 120304Z 09004KT M03/M12 A3025 RMK A01 T10281119  RH  050%=      5-min Rain = 0
KSW1 120305Z 09004KT M03/M12 A3025 RMK A01 T10301120  RH  050%=      5-min Rain = 0
KSW1 120306Z 09004KT M03/M12 A3025 RMK A01 T10311121  RH  050%=      5-min Rain = 0
KSW1 120307Z 08005KT M03/M12 A3025 RMK A01 T10321122  RH  050%=      5-min Rain = 0
KSW1 120308Z 08005KT M03/M12 A3024 RMK A01 T10341122  RH  050%=      5-min Rain = 0
KSW1 120309Z 08005KT M04/M12 A3024 RMK A01 T10351122  RH  051%=      5-min Rain = 0
KSW1 120310Z 07005KT M04/M12 A3024 RMK A01 T10351122  RH  051%=      5-min Rain = 0
KSW1 120311Z 08006KT M04/M12 A3024 RMK A01 T10351122  RH  051%=      5-min Rain = 0
KSW1 120312Z 07006KT M04/M12 A3024 RMK A01 T10361122  RH  051%=      5-min Rain = 0
KSW1 120313Z 07006KT M04/M12 A3025 RMK A01 T10361121  RH  052%=      5-min Rain = 0
KSW1 120314Z 08006KT M04/M12 A3025 RMK A01 T10361122  RH  052%=      5-min Rain = 0
KSW1 120315Z 08006KT M04/M12 A3025 RMK A01 T10361121  RH  052%=      5-min Rain = 0
KSW1 120316Z 07006KT M04/M12 A3025 RMK A01 T10361122  RH  052%=      5-min Rain = 0
KSW1 120317Z 07006KT M04/M12 A3025 RMK A01 T10361121  RH  052%=      5-min Rain = 0
KSW1 120318Z 07007KT M04/M12 A3025 RMK A01 T10351121  RH  051%=      5-min Rain = 0
KSW1 120319Z 07007KT M03/M12 A3025 RMK A01 T10341120  RH  051%=      5-min Rain = 0
KSW1 120320Z 07007KT M03/M12 A3025 RMK A01 T10341120  RH  051%=      5-min Rain = 0
KSW1 120321Z 07007KT M03/M12 A3025 RMK A01 T10331120  RH  051%=      5-min Rain = 0
KSW1 120322Z 07007KT M03/M12 A3025 RMK A01 T10331120  RH  051%=      5-min Rain = 0
KSW1 120323Z 07007KT M03/M12 A3025 RMK A01 T10321120  RH  051%=      5-min Rain = 0
KSW1 120324Z 07006KT M03/M12 A3025 RMK A01 T10321120  RH  051%=      5-min Rain = 0
KSW1 120325Z 06007KT M03/M12 A3025 RMK A01 T10321120  RH  051%=      5-min Rain = 0
KSW1 120326Z 07007KT M03/M12 A3025 RMK A01 T10321120  RH  051%=      5-min Rain = 0
KSW1 120327Z 07006KT M03/M12 A3025 RMK A01 T10311120  RH  051%=      5-min Rain = 0
KSW1 120328Z 07006KT M03/M12 A3025 RMK A01 T10311120  RH  050%=      5-min Rain = 0
KSW1 120329Z 08005KT M03/M12 A3025 RMK A01 T10311119  RH  050%=      5-min Rain = 0
KSW1 120330Z 08005KT M03/M12 A3025 RMK A01 T10311119  RH  050%=      5-min Rain = 0
KSW1 120331Z 08005KT M03/M12 A3025 RMK A01 T10311119  RH  050%=      5-min Rain = 0
KSW1 120332Z 08005KT M03/M12 A3025 RMK A01 T10301119  RH  050%=      5-min Rain = 0
KSW1 120333Z 07006KT M03/M12 A3025 RMK A01 T10301119  RH  050%=      5-min Rain = 0
KSW1 120334Z 07006KT M03/M12 A3025 RMK A01 T10301119  RH  050%=      5-min Rain = 0
KSW1 120335Z 07006KT M03/M12 A3025 RMK A01 T10301119  RH  050%=      5-min Rain = 0
KSW1 120336Z 07006KT M03/M12 A3025 RMK A01 T10301118  RH  050%=      5-min Rain = 0
KSW1 120337Z 07007KT M03/M12 A3025 RMK A01 T10291118  RH  050%=      5-min Rain = 0
KSW1 120338Z 07006KT M03/M12 A3025 RMK A01 T10301119  RH  050%=      5-min Rain = 0
KSW1 120339Z 07007KT M03/M12 A3025 RMK A01 T10311120  RH  050%=      5-min Rain = 0
KSW1 120340Z 07006KT M03/M12 A3025 RMK A01 T10321120  RH  050%=      5-min Rain = 0
KSW1 120341Z 07006KT M03/M12 A3025 RMK A01 T10321120  RH  051%=      5-min Rain = 0
KSW1 120342Z 07006KT M03/M12 A3025 RMK A01 T10321120  RH  051%=      5-min Rain = 0
KSW1 120343Z 07006KT M03/M12 A3025 RMK A01 T10321120  RH  051%=      5-min Rain = 0
KSW1 120344Z 07006KT M03/M12 A3025 RMK A01 T10321120  RH  051%=      5-min Rain = 0
KSW1 120345Z 07006KT M03/M12 A3025 RMK A01 T10321120  RH  051%=      5-min Rain = 0
KSW1 120346Z 07006KT M03/M12 A3025 RMK A01 T10321120  RH  051%=      5-min Rain = 0
KSW1 120347Z 07006KT M03/M12 A3025 RMK A01 T10321120  RH  051%=      5-min Rain = 0
KSW1 120348Z 07006KT M03/M12 A3025 RMK A01 T10321120  RH  051%=      5-min Rain = 0
KSW1 120349Z 07006KT M03/M12 A3025 RMK A01 T10331121  RH  051%=      5-min Rain = 0
KSW1 120350Z 07006KT M03/M12 A3025 RMK A01 T10341121  RH  051%=      5-min Rain = 0
KSW1 120351Z 07006KT M03/M12 A3025 RMK A01 T10341120  RH  051%=      5-min Rain = 0
KSW1 120352Z 06006KT M03/M12 A3025 RMK A01 T10321119  RH  051%=      5-min Rain = 0
KSW1 120353Z 06006KT M03/M12 A3025 RMK A01 T10321119  RH  051%=      5-min Rain = 0
KSW1 120354Z 06006KT M03/M12 A3025 RMK A01 T10311119  RH  051%=      5-min Rain = 0
KSW1 120355Z 07006KT M03/M12 A3025 RMK A01 T10311119  RH  051%=      5-min Rain = 0
KSW1 120356Z 07006KT M03/M12 A3025 RMK A01 T10301119  RH  050%=      5-min Rain = 0
KSW1 120357Z 07006KT M03/M12 A3025 RMK A01 T10301119  RH  050%=      5-min Rain = 0
KSW1 120358Z 07006KT M03/M12 A3025 RMK A01 T10311120  RH  050%=      5-min Rain = 0
KSW1 120359Z 07006KT M03/M12 A3025 RMK A01 T10321120  RH  050%=      5-min Rain = 0
KSW1 120400Z 07006KT M03/M12 A3025 RMK A01 T10321120  RH  051%=      5-min Rain = 0
KSW1 120401Z 07006KT M03/M12 A3025 RMK A01 T10321120  RH  051%=      5-min Rain = 0
KSW1 120402Z 07006KT M03/M12 A3025 RMK A01 T10321120  RH  051%=      5-min Rain = 0
KSW1 120403Z 07006KT M03/M12 A3025 RMK A01 T10331120  RH  051%=      5-min Rain = 0
KSW1 120404Z 07006KT M03/M12 A3025 RMK A01 T10331120  RH  051%=      5-min Rain = 0
KSW1 120405Z 07006KT M03/M12 A3025 RMK A01 T10341121  RH  051%=      5-min Rain = 0
KSW1 120406Z 07006KT M03/M12 A3025 RMK A01 T10331120  RH  051%=      5-min Rain = 0
KSW1 120407Z 07006KT M03/M12 A3025 RMK A01 T10331120  RH  051%=      5-min Rain = 0
KSW1 120408Z 07005KT M03/M12 A3025 RMK A01 T10331120  RH  051%=      5-min Rain = 0
KSW1 120409Z 08005KT M03/M12 A3025 RMK A01 T10321119  RH  051%=      5-min Rain = 0
KSW1 120410Z 08005KT M03/M12 A3025 RMK A01 T10321120  RH  051%=      5-min Rain = 0
KSW1 120411Z 08005KT M03/M12 A3025 RMK A01 T10321120  RH  051%=      5-min Rain = 0
KSW1 120412Z 08005KT M03/M12 A3025 RMK A01 T10331121  RH  051%=      5-min Rain = 0
KSW1 120413Z 08005KT M03/M12 A3025 RMK A01 T10341122  RH  051%=      5-min Rain = 0
KSW1 120414Z 08005KT M04/M12 A3025 RMK A01 T10351122  RH  051%=      5-min Rain = 0
KSW1 120415Z 08005KT M04/M12 A3025 RMK A01 T10361122  RH  051%=      5-min Rain = 0
KSW1 120416Z 08005KT M04/M12 A3025 RMK A01 T10371122  RH  052%=      5-min Rain = 0
KSW1 120417Z 07006KT M04/M12 A3026 RMK A01 T10371122  RH  052%=      5-min Rain = 0
KSW1 120418Z 07006KT M04/M12 A3026 RMK A01 T10371121  RH  052%=      5-min Rain = 0
KSW1 120419Z 07006KT M04/M12 A3026 RMK A01 T10361120  RH  052%=      5-min Rain = 0
KSW1 120420Z 07006KT M04/M12 A3026 RMK A01 T10351120  RH  052%=      5-min Rain = 0
KSW1 120421Z 07006KT M04/M12 A3026 RMK A01 T10351120  RH  052%=      5-min Rain = 0
KSW1 120422Z 07006KT M03/M12 A3026 RMK A01 T10341119  RH  052%=      5-min Rain = 0
KSW1 120423Z 07006KT M03/M12 A3026 RMK A01 T10331119  RH  051%=      5-min Rain = 0
KSW1 120424Z 07006KT M03/M12 A3026 RMK A01 T10321119  RH  051%=      5-min Rain = 0
KSW1 120425Z 07006KT M03/M12 A3026 RMK A01 T10321119  RH  051%=      5-min Rain = 0
KSW1 120426Z 07006KT M03/M12 A3026 RMK A01 T10321119  RH  051%=      5-min Rain = 0
KSW1 120427Z 07006KT M03/M12 A3026 RMK A01 T10321120  RH  051%=      5-min Rain = 0
KSW1 120428Z 07006KT M03/M12 A3026 RMK A01 T10321120  RH  051%=      5-min Rain = 0
KSW1 120429Z 07006KT M03/M12 A3026 RMK A01 T10331120  RH  051%=      5-min Rain = 0
KSW1 120430Z 07007KT M03/M12 A3026 RMK A01 T10331120  RH  051%=      5-min Rain = 0
KSW1 120431Z 07007KT M03/M12 A3026 RMK A01 T10331120  RH  051%=      5-min Rain = 0
KSW1 120432Z 07007KT M03/M12 A3026 RMK A01 T10331119  RH  051%=      5-min Rain = 0
KSW1 120433Z 07007KT M03/M12 A3026 RMK A01 T10331120  RH  051%=      5-min Rain = 0
KSW1 120434Z 07007KT M03/M12 A3026 RMK A01 T10321119  RH  051%=      5-min Rain = 0
KSW1 120435Z 07007KT M03/M12 A3026 RMK A01 T10331120  RH  051%=      5-min Rain = 0
KSW1 120436Z 07007KT M03/M12 A3026 RMK A01 T10321120  RH  051%=      5-min Rain = 0
KSW1 120437Z 07008KT M03/M12 A3026 RMK A01 T10331120  RH  051%=      5-min Rain = 0
KSW1 120438Z 07008KT M03/M12 A3026 RMK A01 T10341120  RH  051%=      5-min Rain = 0
KSW1 120439Z 07008KT M03/M12 A3026 RMK A01 T10341120  RH  051%=      5-min Rain = 0
KSW1 120440Z 07008KT M03/M12 A3026 RMK A01 T10331119  RH  052%=      5-min Rain = 0
KSW1 120441Z 07007KT M03/M12 A3026 RMK A01 T10331119  RH  051%=      5-min Rain = 0
KSW1 120442Z 07007KT M03/M12 A3026 RMK A01 T10321118  RH  051%=      5-min Rain = 0
KSW1 120443Z 07007KT M03/M12 A3026 RMK A01 T10311118  RH  051%=      5-min Rain = 0
KSW1 120444Z 07007KT M03/M12 A3026 RMK A01 T10311118  RH  051%=      5-min Rain = 0
KSW1 120445Z 07007KT M03/M12 A3026 RMK A01 T10301118  RH  051%=      5-min Rain = 0
KSW1 120446Z 07007KT M03/M12 A3026 RMK A01 T10301118  RH  051%=      5-min Rain = 0
KSW1 120447Z 08007KT M03/M12 A3026 RMK A01 T10301118  RH  051%=      5-min Rain = 0
KSW1 120448Z 07007KT M03/M12 A3026 RMK A01 T10301118  RH  051%=      5-min Rain = 0
KSW1 120449Z 07007KT M03/M12 A3026 RMK A01 T10311118  RH  051%=      5-min Rain = 0
KSW1 120450Z 07007KT M03/M12 A3026 RMK A01 T10311119  RH  051%=      5-min Rain = 0
KSW1 120451Z 07007KT M03/M12 A3026 RMK A01 T10311119  RH  051%=      5-min Rain = 0
KSW1 120452Z 07007KT M03/M12 A3026 RMK A01 T10321119  RH  051%=      5-min Rain = 0
KSW1 120453Z 07007KT M03/M12 A3026 RMK A01 T10321119  RH  051%=      5-min Rain = 0
KSW1 120454Z 07007KT M03/M12 A3026 RMK A01 T10331119  RH  051%=      5-min Rain = 0
KSW1 120455Z 07008KT M03/M12 A3026 RMK A01 T10331119  RH  052%=      5-min Rain = 0
KSW1 120456Z 07008KT M03/M12 A3026 RMK A01 T10331119  RH  052%=      5-min Rain = 0
KSW1 120457Z 07008KT M03/M12 A3026 RMK A01 T10331118  RH  052%=      5-min Rain = 0
KSW1 120458Z 07008KT M03/M12 A3026 RMK A01 T10331119  RH  052%=      5-min Rain = 0
KSW1 120459Z 07007KT M03/M12 A3026 RMK A01 T10331118  RH  052%=      5-min Rain = 0
KSW1 120500Z 07008KT M03/M12 A3026 RMK A01 T10321117  RH  052%=      5-min Rain = 0
KSW1 120501Z 07008KT M03/M12 A3026 RMK A01 T10311117  RH  051%=      5-min Rain = 0
KSW1 120502Z 07008KT M03/M12 A3026 RMK A01 T10301117  RH  051%=      5-min Rain = 0
KSW1 120503Z 07008KT M03/M12 A3026 RMK A01 T10291116  RH  051%=      5-min Rain = 0
KSW1 120504Z 08008KT M03/M12 A3026 RMK A01 T10281116  RH  051%=      5-min Rain = 0
KSW1 120505Z 07008KT M03/M12 A3026 RMK A01 T10271116  RH  050%=      5-min Rain = 0
KSW1 120506Z 07008KT M03/M12 A3026 RMK A01 T10271117  RH  050%=      5-min Rain = 0
KSW1 120507Z 07008KT M03/M12 A3026 RMK A01 T10271116  RH  050%=      5-min Rain = 0
KSW1 120508Z 07008KT M03/M12 A3026 RMK A01 T10271116  RH  050%=      5-min Rain = 0
KSW1 120509Z 07008KT M03/M12 A3026 RMK A01 T10271116  RH  050%=      5-min Rain = 0
KSW1 120510Z 07008KT M03/M12 A3026 RMK A01 T10281116  RH  050%=      5-min Rain = 0
KSW1 120511Z 07008KT M03/M12 A3026 RMK A01 T10271116  RH  050%=      5-min Rain = 0
KSW1 120512Z 07008KT M03/M12 A3026 RMK A01 T10261116  RH  050%=      5-min Rain = 0
KSW1 120513Z 07008KT M03/M12 A3026 RMK A01 T10261116  RH  050%=      5-min Rain = 0
KSW1 120514Z 07008KT M03/M12 A3026 RMK A01 T10261116  RH  050%=      5-min Rain = 0
KSW1 120515Z 07008KT M03/M12 A3026 RMK A01 T10261116  RH  050%=      5-min Rain = 0
KSW1 120516Z 07008KT M03/M12 A3025 RMK A01 T10261116  RH  050%=      5-min Rain = 0
KSW1 120517Z 07008KT M03/M12 A3025 RMK A01 T10271116  RH  050%=      5-min Rain = 0
KSW1 120518Z 07008KT M03/M12 A3025 RMK A01 T10271116  RH  050%=      5-min Rain = 0
KSW1 120519Z 08007KT M03/M12 A3025 RMK A01 T10271116  RH  050%=      5-min Rain = 0
KSW1 120520Z 07007KT M03/M12 A3025 RMK A01 T10281117  RH  051%=      5-min Rain = 0
KSW1 120521Z 08007KT M03/M12 A3025 RMK A01 T10291117  RH  051%=      5-min Rain = 0
KSW1 120522Z 08006KT M03/M12 A3026 RMK A01 T10301117  RH  051%=      5-min Rain = 0
KSW1 120523Z 08006KT M03/M12 A3026 RMK A01 T10301117  RH  051%=      5-min Rain = 0
KSW1 120524Z 08005KT M03/M12 A3026 RMK A01 T10311117  RH  051%=      5-min Rain = 0
KSW1 120525Z 08005KT M03/M12 A3026 RMK A01 T10311117  RH  051%=      5-min Rain = 0
KSW1 120526Z 08005KT M03/M12 A3026 RMK A01 T10321118  RH  052%=      5-min Rain = 0
KSW1 120527Z 08006KT M03/M12 A3026 RMK A01 T10331118  RH  052%=      5-min Rain = 0
KSW1 120528Z 08006KT M03/M12 A3026 RMK A01 T10331118  RH  052%=      5-min Rain = 0
KSW1 120529Z 09006KT M03/M12 A3026 RMK A01 T10331118  RH  052%=      5-min Rain = 0
KSW1 120530Z 09006KT M03/M12 A3026 RMK A01 T10341118  RH  052%=      5-min Rain = 0
KSW1 120531Z 09006KT M03/M12 A3026 RMK A01 T10341118  RH  052%=      5-min Rain = 0
KSW1 120532Z 09005KT M04/M12 A3026 RMK A01 T10351118  RH  053%=      5-min Rain = 0
KSW1 120533Z 09005KT M04/M12 A3026 RMK A01 T10351118  RH  053%=      5-min Rain = 0
KSW1 120534Z 09005KT M04/M12 A3026 RMK A01 T10361118  RH  053%=      5-min Rain = 0
KSW1 120535Z 08005KT M04/M12 A3026 RMK A01 T10371119  RH  053%=      5-min Rain = 0
KSW1 120536Z 08005KT M04/M12 A3026 RMK A01 T10361118  RH  053%=      5-min Rain = 0
KSW1 120537Z 09005KT M04/M12 A3026 RMK A01 T10361118  RH  053%=      5-min Rain = 0
KSW1 120538Z 09005KT M04/M12 A3026 RMK A01 T10371118  RH  053%=      5-min Rain = 0
KSW1 120539Z 08005KT M04/M12 A3026 RMK A01 T10361118  RH  053%=      5-min Rain = 0
KSW1 120540Z 08005KT M04/M12 A3026 RMK A01 T10371118  RH  053%=      5-min Rain = 0
KSW1 120541Z 08005KT M04/M12 A3026 RMK A01 T10361118  RH  053%=      5-min Rain = 0
KSW1 120542Z 08005KT M04/M12 A3026 RMK A01 T10361118  RH  053%=      5-min Rain = 0
KSW1 120543Z 09005KT M04/M12 A3026 RMK A01 T10351118  RH  053%=      5-min Rain = 0
KSW1 120544Z 09005KT M04/M12 A3026 RMK A01 T10351117  RH  053%=      5-min Rain = 0
KSW1 120545Z 09005KT M03/M12 A3026 RMK A01 T10341117  RH  053%=      5-min Rain = 0
KSW1 120546Z 09005KT M03/M12 A3026 RMK A01 T10341118  RH  052%=      5-min Rain = 0
KSW1 120547Z 10005KT M03/M12 A3026 RMK A01 T10341118  RH  052%=      5-min Rain = 0
KSW1 120548Z 10005KT M03/M12 A3026 RMK A01 T10341118  RH  052%=      5-min Rain = 0
KSW1 120549Z 10005KT M03/M12 A3026 RMK A01 T10341118  RH  052%=      5-min Rain = 0
KSW1 120550Z 10005KT M03/M12 A3026 RMK A01 T10341118  RH  052%=      5-min Rain = 0
KSW1 120551Z 10005KT M03/M12 A3026 RMK A01 T10331118  RH  052%=      5-min Rain = 0
KSW1 120552Z 10004KT M03/M12 A3026 RMK A01 T10331117  RH  052%=      5-min Rain = 0
KSW1 120553Z 10004KT M03/M12 A3026 RMK A01 T10331118  RH  052%=      5-min Rain = 0
KSW1 120554Z 10004KT M03/M12 A3026 RMK A01 T10331118  RH  052%=      5-min Rain = 0
KSW1 120555Z 10004KT M03/M12 A3027 RMK A01 T10341118  RH  052%=      5-min Rain = 0
KSW1 120556Z 11004KT M03/M12 A3027 RMK A01 T10341118  RH  052%=      5-min Rain = 0
KSW1 120557Z 11004KT M03/M12 A3027 RMK A01 T10341118  RH  052%=      5-min Rain = 0
KSW1 120558Z 11004KT M03/M12 A3027 RMK A01 T10331117  RH  052%=      5-min Rain = 0
KSW1 120559Z 11003KT M03/M12 A3027 RMK A01 T10321117  RH  052%=      5-min Rain = 0

Page generated in 0.1326 seconds.